<?xml version="1.0" encoding="UTF-8" standalone="no" ?>
<gpx xmlns="http://www.topografix.com/GPX/1/1" xmlns:xsi="http://www.w3.org/2001/XMLSchema-instance" xsi:schemaLocation="http://www.topografix.com/GPX/1/1 http://www.topografix.com/GPX/1/1/gpx.xsd" version="1.1" creator="VisuGPX - https://www.visugpx.com">
  <metadata>
    <name>Traces S3-3 Ussac Saint Jean de Laur</name>
  </metadata>
  <trk>
    <name><![CDATA[Traces S3-3 Ussac Saint Jean de Laur]]></name>
    <trkseg>
      <trkpt lat="44.53623" lon="1.83857">
        <ele>290</ele>
        <time>2021-05-11T08:41:10+02:00</time>
      </trkpt>
      <trkpt lat="44.53602" lon="1.83843">
        <ele>273</ele>
        <time>2021-05-11T08:41:51+02:00</time>
      </trkpt>
      <trkpt lat="44.53579" lon="1.83846">
        <ele>276</ele>
        <time>2021-05-11T08:43:24+02:00</time>
      </trkpt>
      <trkpt lat="44.53556" lon="1.83853">
        <ele>279</ele>
        <time>2021-05-11T08:43:48+02:00</time>
      </trkpt>
      <trkpt lat="44.53534" lon="1.83857">
        <ele>284</ele>
        <time>2021-05-11T08:44:10+02:00</time>
      </trkpt>
      <trkpt lat="44.53511" lon="1.8386">
        <ele>284</ele>
        <time>2021-05-11T08:44:33+02:00</time>
      </trkpt>
      <trkpt lat="44.53489" lon="1.83862">
        <ele>284</ele>
        <time>2021-05-11T08:44:55+02:00</time>
      </trkpt>
      <trkpt lat="44.53465" lon="1.83866">
        <ele>286</ele>
        <time>2021-05-11T08:45:17+02:00</time>
      </trkpt>
      <trkpt lat="44.53443" lon="1.83876">
        <ele>286</ele>
        <time>2021-05-11T08:45:38+02:00</time>
      </trkpt>
      <trkpt lat="44.53421" lon="1.83888">
        <ele>287</ele>
        <time>2021-05-11T08:45:59+02:00</time>
      </trkpt>
      <trkpt lat="44.53399" lon="1.83893">
        <ele>287</ele>
        <time>2021-05-11T08:46:20+02:00</time>
      </trkpt>
      <trkpt lat="44.53375" lon="1.83885">
        <ele>288</ele>
        <time>2021-05-11T08:46:41+02:00</time>
      </trkpt>
      <trkpt lat="44.53354" lon="1.83874">
        <ele>290</ele>
        <time>2021-05-11T08:47:02+02:00</time>
      </trkpt>
      <trkpt lat="44.53331" lon="1.83865">
        <ele>291</ele>
        <time>2021-05-11T08:47:23+02:00</time>
      </trkpt>
      <trkpt lat="44.53309" lon="1.83866">
        <ele>293</ele>
        <time>2021-05-11T08:47:44+02:00</time>
      </trkpt>
      <trkpt lat="44.53286" lon="1.83868">
        <ele>294</ele>
        <time>2021-05-11T08:48:06+02:00</time>
      </trkpt>
      <trkpt lat="44.53263" lon="1.83862">
        <ele>296</ele>
        <time>2021-05-11T08:48:27+02:00</time>
      </trkpt>
      <trkpt lat="44.53241" lon="1.83853">
        <ele>297</ele>
        <time>2021-05-11T08:48:49+02:00</time>
      </trkpt>
      <trkpt lat="44.53219" lon="1.83846">
        <ele>299</ele>
        <time>2021-05-11T08:49:10+02:00</time>
      </trkpt>
      <trkpt lat="44.53197" lon="1.83836">
        <ele>302</ele>
        <time>2021-05-11T08:49:30+02:00</time>
      </trkpt>
      <trkpt lat="44.53175" lon="1.83824">
        <ele>302</ele>
        <time>2021-05-11T08:49:51+02:00</time>
      </trkpt>
      <trkpt lat="44.53154" lon="1.83814">
        <ele>302</ele>
        <time>2021-05-11T08:50:11+02:00</time>
      </trkpt>
      <trkpt lat="44.53132" lon="1.83804">
        <ele>304</ele>
        <time>2021-05-11T08:50:32+02:00</time>
      </trkpt>
      <trkpt lat="44.53109" lon="1.83798">
        <ele>305</ele>
        <time>2021-05-11T08:50:52+02:00</time>
      </trkpt>
      <trkpt lat="44.53087" lon="1.83792">
        <ele>306</ele>
        <time>2021-05-11T08:51:12+02:00</time>
      </trkpt>
      <trkpt lat="44.53064" lon="1.83788">
        <ele>305</ele>
        <time>2021-05-11T08:51:31+02:00</time>
      </trkpt>
      <trkpt lat="44.53042" lon="1.8378">
        <ele>306</ele>
        <time>2021-05-11T08:51:52+02:00</time>
      </trkpt>
      <trkpt lat="44.5302" lon="1.83771">
        <ele>307</ele>
        <time>2021-05-11T08:52:12+02:00</time>
      </trkpt>
      <trkpt lat="44.52997" lon="1.83764">
        <ele>308</ele>
        <time>2021-05-11T08:52:32+02:00</time>
      </trkpt>
      <trkpt lat="44.52975" lon="1.83757">
        <ele>309</ele>
        <time>2021-05-11T08:52:53+02:00</time>
      </trkpt>
      <trkpt lat="44.52953" lon="1.83752">
        <ele>311</ele>
        <time>2021-05-11T08:53:14+02:00</time>
      </trkpt>
      <trkpt lat="44.52929" lon="1.83747">
        <ele>312</ele>
        <time>2021-05-11T08:53:35+02:00</time>
      </trkpt>
      <trkpt lat="44.52908" lon="1.83737">
        <ele>314</ele>
        <time>2021-05-11T08:53:55+02:00</time>
      </trkpt>
      <trkpt lat="44.52885" lon="1.83729">
        <ele>316</ele>
        <time>2021-05-11T08:54:16+02:00</time>
      </trkpt>
      <trkpt lat="44.52863" lon="1.83725">
        <ele>317</ele>
        <time>2021-05-11T08:54:36+02:00</time>
      </trkpt>
      <trkpt lat="44.52841" lon="1.83712">
        <ele>320</ele>
        <time>2021-05-11T08:55:12+02:00</time>
      </trkpt>
      <trkpt lat="44.52823" lon="1.83692">
        <ele>322</ele>
        <time>2021-05-11T08:55:34+02:00</time>
      </trkpt>
      <trkpt lat="44.52807" lon="1.83669">
        <ele>325</ele>
        <time>2021-05-11T08:55:57+02:00</time>
      </trkpt>
      <trkpt lat="44.5279" lon="1.83648">
        <ele>328</ele>
        <time>2021-05-11T08:56:20+02:00</time>
      </trkpt>
      <trkpt lat="44.52771" lon="1.83627">
        <ele>329</ele>
        <time>2021-05-11T08:56:43+02:00</time>
      </trkpt>
      <trkpt lat="44.52754" lon="1.83605">
        <ele>332</ele>
        <time>2021-05-11T08:57:05+02:00</time>
      </trkpt>
      <trkpt lat="44.52735" lon="1.83588">
        <ele>332</ele>
        <time>2021-05-11T08:57:27+02:00</time>
      </trkpt>
      <trkpt lat="44.52716" lon="1.83569">
        <ele>334</ele>
        <time>2021-05-11T08:57:48+02:00</time>
      </trkpt>
      <trkpt lat="44.52697" lon="1.8355">
        <ele>337</ele>
        <time>2021-05-11T08:58:11+02:00</time>
      </trkpt>
      <trkpt lat="44.5268" lon="1.83529">
        <ele>338</ele>
        <time>2021-05-11T08:58:33+02:00</time>
      </trkpt>
      <trkpt lat="44.52665" lon="1.83505">
        <ele>341</ele>
        <time>2021-05-11T08:58:57+02:00</time>
      </trkpt>
      <trkpt lat="44.5265" lon="1.8348">
        <ele>345</ele>
        <time>2021-05-11T08:59:23+02:00</time>
      </trkpt>
      <trkpt lat="44.52634" lon="1.83457">
        <ele>346</ele>
        <time>2021-05-11T08:59:49+02:00</time>
      </trkpt>
      <trkpt lat="44.5262" lon="1.83432">
        <ele>349</ele>
        <time>2021-05-11T09:00:14+02:00</time>
      </trkpt>
      <trkpt lat="44.52607" lon="1.83406">
        <ele>351</ele>
        <time>2021-05-11T09:00:39+02:00</time>
      </trkpt>
      <trkpt lat="44.52595" lon="1.83378">
        <ele>353</ele>
        <time>2021-05-11T09:01:06+02:00</time>
      </trkpt>
      <trkpt lat="44.52583" lon="1.8335">
        <ele>357</ele>
        <time>2021-05-11T09:01:31+02:00</time>
      </trkpt>
      <trkpt lat="44.52567" lon="1.83326">
        <ele>359</ele>
        <time>2021-05-11T09:01:55+02:00</time>
      </trkpt>
      <trkpt lat="44.52548" lon="1.83309">
        <ele>360</ele>
        <time>2021-05-11T09:02:17+02:00</time>
      </trkpt>
      <trkpt lat="44.52525" lon="1.83304">
        <ele>361</ele>
        <time>2021-05-11T09:02:40+02:00</time>
      </trkpt>
      <trkpt lat="44.52457" lon="1.83352">
        <ele>363</ele>
        <time>2021-05-11T09:04:09+02:00</time>
      </trkpt>
      <trkpt lat="44.52434" lon="1.8336">
        <ele>363</ele>
        <time>2021-05-11T09:04:32+02:00</time>
      </trkpt>
      <trkpt lat="44.52411" lon="1.8337">
        <ele>365</ele>
        <time>2021-05-11T09:04:53+02:00</time>
      </trkpt>
      <trkpt lat="44.5239" lon="1.83384">
        <ele>368</ele>
        <time>2021-05-11T09:05:12+02:00</time>
      </trkpt>
      <trkpt lat="44.5237" lon="1.83398">
        <ele>367</ele>
        <time>2021-05-11T09:05:34+02:00</time>
      </trkpt>
      <trkpt lat="44.52349" lon="1.83411">
        <ele>367</ele>
        <time>2021-05-11T09:05:54+02:00</time>
      </trkpt>
      <trkpt lat="44.52329" lon="1.83424">
        <ele>369</ele>
        <time>2021-05-11T09:06:14+02:00</time>
      </trkpt>
      <trkpt lat="44.52308" lon="1.83436">
        <ele>370</ele>
        <time>2021-05-11T09:06:33+02:00</time>
      </trkpt>
      <trkpt lat="44.52286" lon="1.8345">
        <ele>371</ele>
        <time>2021-05-11T09:06:55+02:00</time>
      </trkpt>
      <trkpt lat="44.52266" lon="1.83464">
        <ele>373</ele>
        <time>2021-05-11T09:07:16+02:00</time>
      </trkpt>
      <trkpt lat="44.52246" lon="1.83481">
        <ele>373</ele>
        <time>2021-05-11T09:07:37+02:00</time>
      </trkpt>
      <trkpt lat="44.52225" lon="1.83496">
        <ele>374</ele>
        <time>2021-05-11T09:07:58+02:00</time>
      </trkpt>
      <trkpt lat="44.52203" lon="1.83504">
        <ele>373</ele>
        <time>2021-05-11T09:08:21+02:00</time>
      </trkpt>
      <trkpt lat="44.52181" lon="1.83514">
        <ele>373</ele>
        <time>2021-05-11T09:08:43+02:00</time>
      </trkpt>
      <trkpt lat="44.5216" lon="1.83526">
        <ele>373</ele>
        <time>2021-05-11T09:09:03+02:00</time>
      </trkpt>
      <trkpt lat="44.52138" lon="1.83537">
        <ele>372</ele>
        <time>2021-05-11T09:09:27+02:00</time>
      </trkpt>
      <trkpt lat="44.52116" lon="1.83548">
        <ele>372</ele>
        <time>2021-05-11T09:09:49+02:00</time>
      </trkpt>
      <trkpt lat="44.52095" lon="1.83561">
        <ele>369</ele>
        <time>2021-05-11T09:10:11+02:00</time>
      </trkpt>
      <trkpt lat="44.52074" lon="1.83573">
        <ele>370</ele>
        <time>2021-05-11T09:10:42+02:00</time>
      </trkpt>
      <trkpt lat="44.52053" lon="1.83585">
        <ele>369</ele>
        <time>2021-05-11T09:11:09+02:00</time>
      </trkpt>
      <trkpt lat="44.52032" lon="1.83598">
        <ele>368</ele>
        <time>2021-05-11T09:11:31+02:00</time>
      </trkpt>
      <trkpt lat="44.5201" lon="1.83608">
        <ele>368</ele>
        <time>2021-05-11T09:11:56+02:00</time>
      </trkpt>
      <trkpt lat="44.5199" lon="1.83622">
        <ele>368</ele>
        <time>2021-05-11T09:12:20+02:00</time>
      </trkpt>
      <trkpt lat="44.51968" lon="1.8363">
        <ele>366</ele>
        <time>2021-05-11T09:12:42+02:00</time>
      </trkpt>
      <trkpt lat="44.51945" lon="1.8363">
        <ele>367</ele>
        <time>2021-05-11T09:13:03+02:00</time>
      </trkpt>
      <trkpt lat="44.51922" lon="1.83629">
        <ele>365</ele>
        <time>2021-05-11T09:13:23+02:00</time>
      </trkpt>
      <trkpt lat="44.51898" lon="1.83627">
        <ele>365</ele>
        <time>2021-05-11T09:13:45+02:00</time>
      </trkpt>
      <trkpt lat="44.51876" lon="1.83622">
        <ele>365</ele>
        <time>2021-05-11T09:14:07+02:00</time>
      </trkpt>
      <trkpt lat="44.51853" lon="1.83621">
        <ele>363</ele>
        <time>2021-05-11T09:14:27+02:00</time>
      </trkpt>
      <trkpt lat="44.51829" lon="1.83619">
        <ele>362</ele>
        <time>2021-05-11T09:14:48+02:00</time>
      </trkpt>
      <trkpt lat="44.51806" lon="1.83621">
        <ele>360</ele>
        <time>2021-05-11T09:15:09+02:00</time>
      </trkpt>
      <trkpt lat="44.51784" lon="1.83616">
        <ele>361</ele>
        <time>2021-05-11T09:15:29+02:00</time>
      </trkpt>
      <trkpt lat="44.51761" lon="1.83612">
        <ele>360</ele>
        <time>2021-05-11T09:15:50+02:00</time>
      </trkpt>
      <trkpt lat="44.51737" lon="1.83613">
        <ele>357</ele>
        <time>2021-05-11T09:16:10+02:00</time>
      </trkpt>
      <trkpt lat="44.51714" lon="1.83608">
        <ele>358</ele>
        <time>2021-05-11T09:16:30+02:00</time>
      </trkpt>
      <trkpt lat="44.51692" lon="1.83601">
        <ele>357</ele>
        <time>2021-05-11T09:16:50+02:00</time>
      </trkpt>
      <trkpt lat="44.5167" lon="1.83591">
        <ele>357</ele>
        <time>2021-05-11T09:17:11+02:00</time>
      </trkpt>
      <trkpt lat="44.51647" lon="1.83583">
        <ele>357</ele>
        <time>2021-05-11T09:17:32+02:00</time>
      </trkpt>
      <trkpt lat="44.51629" lon="1.83563">
        <ele>359</ele>
        <time>2021-05-11T09:17:51+02:00</time>
      </trkpt>
      <trkpt lat="44.51608" lon="1.83547">
        <ele>360</ele>
        <time>2021-05-11T09:18:14+02:00</time>
      </trkpt>
      <trkpt lat="44.51587" lon="1.83535">
        <ele>361</ele>
        <time>2021-05-11T09:18:35+02:00</time>
      </trkpt>
      <trkpt lat="44.51575" lon="1.83509">
        <ele>362</ele>
        <time>2021-05-11T09:18:58+02:00</time>
      </trkpt>
      <trkpt lat="44.51566" lon="1.83478">
        <ele>360</ele>
        <time>2021-05-11T09:19:21+02:00</time>
      </trkpt>
      <trkpt lat="44.51557" lon="1.83448">
        <ele>362</ele>
        <time>2021-05-11T09:19:44+02:00</time>
      </trkpt>
      <trkpt lat="44.51548" lon="1.83417">
        <ele>359</ele>
        <time>2021-05-11T09:20:07+02:00</time>
      </trkpt>
      <trkpt lat="44.51535" lon="1.8339">
        <ele>360</ele>
        <time>2021-05-11T09:20:29+02:00</time>
      </trkpt>
      <trkpt lat="44.51525" lon="1.83361">
        <ele>361</ele>
        <time>2021-05-11T09:20:51+02:00</time>
      </trkpt>
      <trkpt lat="44.51514" lon="1.83332">
        <ele>359</ele>
        <time>2021-05-11T09:21:12+02:00</time>
      </trkpt>
      <trkpt lat="44.51502" lon="1.83304">
        <ele>357</ele>
        <time>2021-05-11T09:21:45+02:00</time>
      </trkpt>
      <trkpt lat="44.51491" lon="1.83276">
        <ele>357</ele>
        <time>2021-05-11T09:22:05+02:00</time>
      </trkpt>
      <trkpt lat="44.51481" lon="1.83248">
        <ele>352</ele>
        <time>2021-05-11T09:23:18+02:00</time>
      </trkpt>
      <trkpt lat="44.51471" lon="1.83219">
        <ele>352</ele>
        <time>2021-05-11T09:23:38+02:00</time>
      </trkpt>
      <trkpt lat="44.51457" lon="1.83192">
        <ele>349</ele>
        <time>2021-05-11T09:23:56+02:00</time>
      </trkpt>
      <trkpt lat="44.51452" lon="1.83162">
        <ele>347</ele>
        <time>2021-05-11T09:24:13+02:00</time>
      </trkpt>
      <trkpt lat="44.51442" lon="1.83133">
        <ele>340</ele>
        <time>2021-05-11T09:24:42+02:00</time>
      </trkpt>
      <trkpt lat="44.51437" lon="1.83102">
        <ele>336</ele>
        <time>2021-05-11T09:25:22+02:00</time>
      </trkpt>
      <trkpt lat="44.51429" lon="1.83071">
        <ele>331</ele>
        <time>2021-05-11T09:25:52+02:00</time>
      </trkpt>
      <trkpt lat="44.51422" lon="1.83038">
        <ele>328</ele>
        <time>2021-05-11T09:26:23+02:00</time>
      </trkpt>
      <trkpt lat="44.51418" lon="1.83006">
        <ele>324</ele>
        <time>2021-05-11T09:26:48+02:00</time>
      </trkpt>
      <trkpt lat="44.51406" lon="1.82977">
        <ele>321</ele>
        <time>2021-05-11T09:27:12+02:00</time>
      </trkpt>
      <trkpt lat="44.51397" lon="1.82946">
        <ele>319</ele>
        <time>2021-05-11T09:27:36+02:00</time>
      </trkpt>
      <trkpt lat="44.51388" lon="1.82917">
        <ele>317</ele>
        <time>2021-05-11T09:27:58+02:00</time>
      </trkpt>
      <trkpt lat="44.51375" lon="1.82889">
        <ele>312</ele>
        <time>2021-05-11T09:29:01+02:00</time>
      </trkpt>
      <trkpt lat="44.51361" lon="1.82865">
        <ele>312</ele>
        <time>2021-05-11T09:29:24+02:00</time>
      </trkpt>
      <trkpt lat="44.5134" lon="1.82879">
        <ele>313</ele>
        <time>2021-05-11T09:29:50+02:00</time>
      </trkpt>
      <trkpt lat="44.51317" lon="1.82885">
        <ele>314</ele>
        <time>2021-05-11T09:30:09+02:00</time>
      </trkpt>
      <trkpt lat="44.51293" lon="1.82879">
        <ele>314</ele>
        <time>2021-05-11T09:30:32+02:00</time>
      </trkpt>
      <trkpt lat="44.51271" lon="1.82867">
        <ele>318</ele>
        <time>2021-05-11T09:30:57+02:00</time>
      </trkpt>
      <trkpt lat="44.51247" lon="1.82864">
        <ele>321</ele>
        <time>2021-05-11T09:31:22+02:00</time>
      </trkpt>
      <trkpt lat="44.51224" lon="1.82868">
        <ele>324</ele>
        <time>2021-05-11T09:31:45+02:00</time>
      </trkpt>
      <trkpt lat="44.51204" lon="1.82885">
        <ele>326</ele>
        <time>2021-05-11T09:32:06+02:00</time>
      </trkpt>
      <trkpt lat="44.51183" lon="1.82901">
        <ele>329</ele>
        <time>2021-05-11T09:32:28+02:00</time>
      </trkpt>
      <trkpt lat="44.5116" lon="1.82903">
        <ele>327</ele>
        <time>2021-05-11T09:32:51+02:00</time>
      </trkpt>
      <trkpt lat="44.51136" lon="1.82899">
        <ele>329</ele>
        <time>2021-05-11T09:33:12+02:00</time>
      </trkpt>
      <trkpt lat="44.51114" lon="1.82912">
        <ele>333</ele>
        <time>2021-05-11T09:33:34+02:00</time>
      </trkpt>
      <trkpt lat="44.51094" lon="1.82927">
        <ele>336</ele>
        <time>2021-05-11T09:33:58+02:00</time>
      </trkpt>
      <trkpt lat="44.51073" lon="1.8294">
        <ele>337</ele>
        <time>2021-05-11T09:34:21+02:00</time>
      </trkpt>
      <trkpt lat="44.51051" lon="1.82947">
        <ele>339</ele>
        <time>2021-05-11T09:34:43+02:00</time>
      </trkpt>
      <trkpt lat="44.5103" lon="1.82961">
        <ele>339</ele>
        <time>2021-05-11T09:35:07+02:00</time>
      </trkpt>
      <trkpt lat="44.51011" lon="1.8298">
        <ele>341</ele>
        <time>2021-05-11T09:35:28+02:00</time>
      </trkpt>
      <trkpt lat="44.50993" lon="1.83">
        <ele>343</ele>
        <time>2021-05-11T09:35:49+02:00</time>
      </trkpt>
      <trkpt lat="44.50972" lon="1.83016">
        <ele>343</ele>
        <time>2021-05-11T09:36:10+02:00</time>
      </trkpt>
      <trkpt lat="44.50954" lon="1.83036">
        <ele>344</ele>
        <time>2021-05-11T09:36:31+02:00</time>
      </trkpt>
      <trkpt lat="44.50938" lon="1.83059">
        <ele>346</ele>
        <time>2021-05-11T09:36:51+02:00</time>
      </trkpt>
      <trkpt lat="44.50918" lon="1.83076">
        <ele>348</ele>
        <time>2021-05-11T09:37:13+02:00</time>
      </trkpt>
      <trkpt lat="44.50896" lon="1.8308">
        <ele>351</ele>
        <time>2021-05-11T09:37:36+02:00</time>
      </trkpt>
      <trkpt lat="44.50873" lon="1.83086">
        <ele>355</ele>
        <time>2021-05-11T09:38:01+02:00</time>
      </trkpt>
      <trkpt lat="44.50851" lon="1.83097">
        <ele>358</ele>
        <time>2021-05-11T09:38:26+02:00</time>
      </trkpt>
      <trkpt lat="44.5083" lon="1.83112">
        <ele>360</ele>
        <time>2021-05-11T09:38:47+02:00</time>
      </trkpt>
      <trkpt lat="44.50816" lon="1.83136">
        <ele>358</ele>
        <time>2021-05-11T09:39:20+02:00</time>
      </trkpt>
      <trkpt lat="44.508" lon="1.83159">
        <ele>357</ele>
        <time>2021-05-11T09:39:47+02:00</time>
      </trkpt>
      <trkpt lat="44.50779" lon="1.83174">
        <ele>351</ele>
        <time>2021-05-11T09:40:14+02:00</time>
      </trkpt>
      <trkpt lat="44.50758" lon="1.83184">
        <ele>350</ele>
        <time>2021-05-11T09:40:39+02:00</time>
      </trkpt>
      <trkpt lat="44.50737" lon="1.83196">
        <ele>345</ele>
        <time>2021-05-11T09:41:09+02:00</time>
      </trkpt>
      <trkpt lat="44.50715" lon="1.83207">
        <ele>341</ele>
        <time>2021-05-11T09:41:35+02:00</time>
      </trkpt>
      <trkpt lat="44.50693" lon="1.83217">
        <ele>339</ele>
        <time>2021-05-11T09:42:00+02:00</time>
      </trkpt>
      <trkpt lat="44.5067" lon="1.83228">
        <ele>336</ele>
        <time>2021-05-11T09:42:27+02:00</time>
      </trkpt>
      <trkpt lat="44.50648" lon="1.83235">
        <ele>334</ele>
        <time>2021-05-11T09:42:51+02:00</time>
      </trkpt>
      <trkpt lat="44.50625" lon="1.83243">
        <ele>332</ele>
        <time>2021-05-11T09:43:15+02:00</time>
      </trkpt>
      <trkpt lat="44.50602" lon="1.83255">
        <ele>329</ele>
        <time>2021-05-11T09:43:37+02:00</time>
      </trkpt>
      <trkpt lat="44.50581" lon="1.83266">
        <ele>329</ele>
        <time>2021-05-11T09:44:00+02:00</time>
      </trkpt>
      <trkpt lat="44.5056" lon="1.8328">
        <ele>326</ele>
        <time>2021-05-11T09:44:23+02:00</time>
      </trkpt>
      <trkpt lat="44.50538" lon="1.8329">
        <ele>324</ele>
        <time>2021-05-11T09:44:43+02:00</time>
      </trkpt>
      <trkpt lat="44.50516" lon="1.83301">
        <ele>322</ele>
        <time>2021-05-11T09:45:04+02:00</time>
      </trkpt>
      <trkpt lat="44.50496" lon="1.83316">
        <ele>321</ele>
        <time>2021-05-11T09:45:24+02:00</time>
      </trkpt>
      <trkpt lat="44.50476" lon="1.83333">
        <ele>320</ele>
        <time>2021-05-11T09:45:45+02:00</time>
      </trkpt>
      <trkpt lat="44.50457" lon="1.8335">
        <ele>317</ele>
        <time>2021-05-11T09:46:07+02:00</time>
      </trkpt>
      <trkpt lat="44.50435" lon="1.83362">
        <ele>315</ele>
        <time>2021-05-11T09:46:28+02:00</time>
      </trkpt>
      <trkpt lat="44.50413" lon="1.83369">
        <ele>314</ele>
        <time>2021-05-11T09:47:00+02:00</time>
      </trkpt>
      <trkpt lat="44.50392" lon="1.8338">
        <ele>312</ele>
        <time>2021-05-11T09:48:03+02:00</time>
      </trkpt>
      <trkpt lat="44.50371" lon="1.83391">
        <ele>313</ele>
        <time>2021-05-11T09:48:23+02:00</time>
      </trkpt>
      <trkpt lat="44.5035" lon="1.83404">
        <ele>311</ele>
        <time>2021-05-11T09:48:45+02:00</time>
      </trkpt>
      <trkpt lat="44.50328" lon="1.83415">
        <ele>309</ele>
        <time>2021-05-11T09:49:06+02:00</time>
      </trkpt>
      <trkpt lat="44.50308" lon="1.8343">
        <ele>308</ele>
        <time>2021-05-11T09:49:29+02:00</time>
      </trkpt>
      <trkpt lat="44.50286" lon="1.83439">
        <ele>305</ele>
        <time>2021-05-11T09:49:48+02:00</time>
      </trkpt>
      <trkpt lat="44.50264" lon="1.83451">
        <ele>305</ele>
        <time>2021-05-11T09:50:08+02:00</time>
      </trkpt>
      <trkpt lat="44.50242" lon="1.83463">
        <ele>304</ele>
        <time>2021-05-11T09:50:28+02:00</time>
      </trkpt>
      <trkpt lat="44.50222" lon="1.83478">
        <ele>301</ele>
        <time>2021-05-11T09:50:49+02:00</time>
      </trkpt>
      <trkpt lat="44.50202" lon="1.83494">
        <ele>301</ele>
        <time>2021-05-11T09:51:10+02:00</time>
      </trkpt>
      <trkpt lat="44.5018" lon="1.83498">
        <ele>303</ele>
        <time>2021-05-11T09:51:29+02:00</time>
      </trkpt>
      <trkpt lat="44.50156" lon="1.83496">
        <ele>303</ele>
        <time>2021-05-11T09:51:50+02:00</time>
      </trkpt>
      <trkpt lat="44.50133" lon="1.835">
        <ele>303</ele>
        <time>2021-05-11T09:52:13+02:00</time>
      </trkpt>
      <trkpt lat="44.5011" lon="1.83501">
        <ele>302</ele>
        <time>2021-05-11T09:52:31+02:00</time>
      </trkpt>
      <trkpt lat="44.50087" lon="1.83503">
        <ele>300</ele>
        <time>2021-05-11T09:52:52+02:00</time>
      </trkpt>
      <trkpt lat="44.50064" lon="1.83505">
        <ele>298</ele>
        <time>2021-05-11T09:53:13+02:00</time>
      </trkpt>
      <trkpt lat="44.50041" lon="1.83508">
        <ele>295</ele>
        <time>2021-05-11T09:53:32+02:00</time>
      </trkpt>
      <trkpt lat="44.50018" lon="1.8351">
        <ele>294</ele>
        <time>2021-05-11T09:53:50+02:00</time>
      </trkpt>
      <trkpt lat="44.49995" lon="1.83512">
        <ele>291</ele>
        <time>2021-05-11T09:54:09+02:00</time>
      </trkpt>
      <trkpt lat="44.49972" lon="1.83514">
        <ele>289</ele>
        <time>2021-05-11T09:54:26+02:00</time>
      </trkpt>
      <trkpt lat="44.49949" lon="1.83515">
        <ele>287</ele>
        <time>2021-05-11T09:54:43+02:00</time>
      </trkpt>
      <trkpt lat="44.49926" lon="1.83515">
        <ele>285</ele>
        <time>2021-05-11T09:55:01+02:00</time>
      </trkpt>
      <trkpt lat="44.49903" lon="1.83516">
        <ele>286</ele>
        <time>2021-05-11T09:55:19+02:00</time>
      </trkpt>
      <trkpt lat="44.4988" lon="1.83515">
        <ele>285</ele>
        <time>2021-05-11T09:55:37+02:00</time>
      </trkpt>
      <trkpt lat="44.49856" lon="1.83516">
        <ele>290</ele>
        <time>2021-05-11T09:55:56+02:00</time>
      </trkpt>
      <trkpt lat="44.49833" lon="1.83515">
        <ele>290</ele>
        <time>2021-05-11T09:56:14+02:00</time>
      </trkpt>
      <trkpt lat="44.4981" lon="1.8352">
        <ele>289</ele>
        <time>2021-05-11T09:56:35+02:00</time>
      </trkpt>
      <trkpt lat="44.49788" lon="1.83525">
        <ele>289</ele>
        <time>2021-05-11T09:56:54+02:00</time>
      </trkpt>
      <trkpt lat="44.49764" lon="1.83526">
        <ele>289</ele>
        <time>2021-05-11T09:57:14+02:00</time>
      </trkpt>
      <trkpt lat="44.49741" lon="1.83521">
        <ele>287</ele>
        <time>2021-05-11T09:57:33+02:00</time>
      </trkpt>
      <trkpt lat="44.49718" lon="1.83515">
        <ele>286</ele>
        <time>2021-05-11T09:57:52+02:00</time>
      </trkpt>
      <trkpt lat="44.49695" lon="1.83516">
        <ele>289</ele>
        <time>2021-05-11T09:58:10+02:00</time>
      </trkpt>
      <trkpt lat="44.49675" lon="1.83535">
        <ele>288</ele>
        <time>2021-05-11T09:58:30+02:00</time>
      </trkpt>
      <trkpt lat="44.49657" lon="1.83554">
        <ele>287</ele>
        <time>2021-05-11T09:58:50+02:00</time>
      </trkpt>
      <trkpt lat="44.49643" lon="1.83581">
        <ele>284</ele>
        <time>2021-05-11T10:04:40+02:00</time>
      </trkpt>
      <trkpt lat="44.49632" lon="1.83609">
        <ele>282</ele>
        <time>2021-05-11T10:05:02+02:00</time>
      </trkpt>
      <trkpt lat="44.49625" lon="1.8364">
        <ele>278</ele>
        <time>2021-05-11T10:05:23+02:00</time>
      </trkpt>
      <trkpt lat="44.49606" lon="1.83658">
        <ele>276</ele>
        <time>2021-05-11T10:05:46+02:00</time>
      </trkpt>
      <trkpt lat="44.49585" lon="1.83673">
        <ele>276</ele>
        <time>2021-05-11T10:06:07+02:00</time>
      </trkpt>
      <trkpt lat="44.49563" lon="1.83683">
        <ele>272</ele>
        <time>2021-05-11T10:06:30+02:00</time>
      </trkpt>
      <trkpt lat="44.4954" lon="1.83678">
        <ele>269</ele>
        <time>2021-05-11T10:06:52+02:00</time>
      </trkpt>
      <trkpt lat="44.49517" lon="1.83672">
        <ele>266</ele>
        <time>2021-05-11T10:07:12+02:00</time>
      </trkpt>
      <trkpt lat="44.49496" lon="1.83686">
        <ele>265</ele>
        <time>2021-05-11T10:07:32+02:00</time>
      </trkpt>
      <trkpt lat="44.49474" lon="1.83701">
        <ele>262</ele>
        <time>2021-05-11T10:07:54+02:00</time>
      </trkpt>
      <trkpt lat="44.49455" lon="1.83719">
        <ele>261</ele>
        <time>2021-05-11T10:08:14+02:00</time>
      </trkpt>
      <trkpt lat="44.49435" lon="1.83735">
        <ele>254</ele>
        <time>2021-05-11T10:08:35+02:00</time>
      </trkpt>
      <trkpt lat="44.49413" lon="1.83725">
        <ele>248</ele>
        <time>2021-05-11T10:12:43+02:00</time>
      </trkpt>
      <trkpt lat="44.49392" lon="1.83713">
        <ele>249</ele>
        <time>2021-05-11T10:13:04+02:00</time>
      </trkpt>
      <trkpt lat="44.4937" lon="1.83704">
        <ele>249</ele>
        <time>2021-05-11T10:13:25+02:00</time>
      </trkpt>
      <trkpt lat="44.49348" lon="1.83696">
        <ele>246</ele>
        <time>2021-05-11T10:13:47+02:00</time>
      </trkpt>
      <trkpt lat="44.49326" lon="1.83687">
        <ele>246</ele>
        <time>2021-05-11T10:14:10+02:00</time>
      </trkpt>
      <trkpt lat="44.49305" lon="1.83678">
        <ele>243</ele>
        <time>2021-05-11T10:14:48+02:00</time>
      </trkpt>
      <trkpt lat="44.49283" lon="1.83665">
        <ele>243</ele>
        <time>2021-05-11T10:15:21+02:00</time>
      </trkpt>
      <trkpt lat="44.4926" lon="1.83662">
        <ele>237</ele>
        <time>2021-05-11T10:15:59+02:00</time>
      </trkpt>
      <trkpt lat="44.49238" lon="1.8366">
        <ele>233</ele>
        <time>2021-05-11T10:16:31+02:00</time>
      </trkpt>
      <trkpt lat="44.49216" lon="1.83649">
        <ele>231</ele>
        <time>2021-05-11T10:16:59+02:00</time>
      </trkpt>
      <trkpt lat="44.49196" lon="1.83635">
        <ele>232</ele>
        <time>2021-05-11T10:17:23+02:00</time>
      </trkpt>
      <trkpt lat="44.49174" lon="1.83625">
        <ele>231</ele>
        <time>2021-05-11T10:22:45+02:00</time>
      </trkpt>
      <trkpt lat="44.49152" lon="1.83626">
        <ele>227</ele>
        <time>2021-05-11T10:23:20+02:00</time>
      </trkpt>
      <trkpt lat="44.49129" lon="1.83634">
        <ele>218</ele>
        <time>2021-05-11T10:23:51+02:00</time>
      </trkpt>
      <trkpt lat="44.49106" lon="1.83634">
        <ele>211</ele>
        <time>2021-05-11T10:24:32+02:00</time>
      </trkpt>
      <trkpt lat="44.49083" lon="1.83641">
        <ele>206</ele>
        <time>2021-05-11T10:25:11+02:00</time>
      </trkpt>
      <trkpt lat="44.4906" lon="1.83645">
        <ele>200</ele>
        <time>2021-05-11T10:25:48+02:00</time>
      </trkpt>
      <trkpt lat="44.49038" lon="1.8365">
        <ele>195</ele>
        <time>2021-05-11T10:26:50+02:00</time>
      </trkpt>
      <trkpt lat="44.49015" lon="1.83653">
        <ele>192</ele>
        <time>2021-05-11T10:27:25+02:00</time>
      </trkpt>
      <trkpt lat="44.48991" lon="1.83657">
        <ele>188</ele>
        <time>2021-05-11T10:27:57+02:00</time>
      </trkpt>
      <trkpt lat="44.48969" lon="1.83666">
        <ele>185</ele>
        <time>2021-05-11T10:28:24+02:00</time>
      </trkpt>
      <trkpt lat="44.48949" lon="1.8368">
        <ele>180</ele>
        <time>2021-05-11T10:28:50+02:00</time>
      </trkpt>
      <trkpt lat="44.48928" lon="1.83694">
        <ele>176</ele>
        <time>2021-05-11T10:29:16+02:00</time>
      </trkpt>
      <trkpt lat="44.48912" lon="1.83718">
        <ele>171</ele>
        <time>2021-05-11T10:29:41+02:00</time>
      </trkpt>
      <trkpt lat="44.489" lon="1.83746">
        <ele>168</ele>
        <time>2021-05-11T10:30:06+02:00</time>
      </trkpt>
      <trkpt lat="44.48894" lon="1.83777">
        <ele>165</ele>
        <time>2021-05-11T10:30:29+02:00</time>
      </trkpt>
      <trkpt lat="44.48887" lon="1.83807">
        <ele>161</ele>
        <time>2021-05-11T10:30:50+02:00</time>
      </trkpt>
      <trkpt lat="44.48882" lon="1.83839">
        <ele>161</ele>
        <time>2021-05-11T10:31:12+02:00</time>
      </trkpt>
      <trkpt lat="44.48877" lon="1.83871">
        <ele>159</ele>
        <time>2021-05-11T10:31:37+02:00</time>
      </trkpt>
      <trkpt lat="44.48868" lon="1.839">
        <ele>157</ele>
        <time>2021-05-11T10:31:55+02:00</time>
      </trkpt>
      <trkpt lat="44.48858" lon="1.83929">
        <ele>155</ele>
        <time>2021-05-11T10:32:15+02:00</time>
      </trkpt>
      <trkpt lat="44.48849" lon="1.83959">
        <ele>157</ele>
        <time>2021-05-11T10:32:35+02:00</time>
      </trkpt>
      <trkpt lat="44.48839" lon="1.83989">
        <ele>156</ele>
        <time>2021-05-11T10:32:54+02:00</time>
      </trkpt>
      <trkpt lat="44.4883" lon="1.8402">
        <ele>155</ele>
        <time>2021-05-11T10:33:13+02:00</time>
      </trkpt>
      <trkpt lat="44.48822" lon="1.84049">
        <ele>154</ele>
        <time>2021-05-11T10:33:32+02:00</time>
      </trkpt>
      <trkpt lat="44.48811" lon="1.84079">
        <ele>153</ele>
        <time>2021-05-11T10:33:52+02:00</time>
      </trkpt>
      <trkpt lat="44.48798" lon="1.84106">
        <ele>153</ele>
        <time>2021-05-11T10:34:11+02:00</time>
      </trkpt>
      <trkpt lat="44.48776" lon="1.84118">
        <ele>153</ele>
        <time>2021-05-11T10:34:31+02:00</time>
      </trkpt>
      <trkpt lat="44.48755" lon="1.8413">
        <ele>152</ele>
        <time>2021-05-11T10:34:50+02:00</time>
      </trkpt>
      <trkpt lat="44.48733" lon="1.84144">
        <ele>153</ele>
        <time>2021-05-11T10:35:09+02:00</time>
      </trkpt>
      <trkpt lat="44.48713" lon="1.8416">
        <ele>153</ele>
        <time>2021-05-11T10:35:28+02:00</time>
      </trkpt>
      <trkpt lat="44.48692" lon="1.84175">
        <ele>153</ele>
        <time>2021-05-11T10:35:48+02:00</time>
      </trkpt>
      <trkpt lat="44.48673" lon="1.84194">
        <ele>150</ele>
        <time>2021-05-11T10:36:10+02:00</time>
      </trkpt>
      <trkpt lat="44.48652" lon="1.84207">
        <ele>152</ele>
        <time>2021-05-11T10:40:14+02:00</time>
      </trkpt>
      <trkpt lat="44.48642" lon="1.84235">
        <ele>152</ele>
        <time>2021-05-11T10:42:40+02:00</time>
      </trkpt>
      <trkpt lat="44.4865" lon="1.84264">
        <ele>150</ele>
        <time>2021-05-11T10:43:41+02:00</time>
      </trkpt>
      <trkpt lat="44.48644" lon="1.84294">
        <ele>151</ele>
        <time>2021-05-11T10:44:09+02:00</time>
      </trkpt>
      <trkpt lat="44.48667" lon="1.84298">
        <ele>151</ele>
        <time>2021-05-11T10:44:47+02:00</time>
      </trkpt>
      <trkpt lat="44.48686" lon="1.84278">
        <ele>151</ele>
        <time>2021-05-11T10:45:38+02:00</time>
      </trkpt>
      <trkpt lat="44.48694" lon="1.84308">
        <ele>138</ele>
        <time>2021-05-11T10:46:38+02:00</time>
      </trkpt>
      <trkpt lat="44.48664" lon="1.84271">
        <ele>151</ele>
        <time>2021-05-11T10:46:42+02:00</time>
      </trkpt>
      <trkpt lat="44.48686" lon="1.84293">
        <ele>150</ele>
        <time>2021-05-11T10:46:43+02:00</time>
      </trkpt>
      <trkpt lat="44.48664" lon="1.84301">
        <ele>150</ele>
        <time>2021-05-11T10:47:34+02:00</time>
      </trkpt>
      <trkpt lat="44.48643" lon="1.84316">
        <ele>151</ele>
        <time>2021-05-11T10:47:55+02:00</time>
      </trkpt>
      <trkpt lat="44.48624" lon="1.84332">
        <ele>153</ele>
        <time>2021-05-11T10:48:17+02:00</time>
      </trkpt>
      <trkpt lat="44.48604" lon="1.84348">
        <ele>153</ele>
        <time>2021-05-11T10:48:50+02:00</time>
      </trkpt>
      <trkpt lat="44.48582" lon="1.84356">
        <ele>150</ele>
        <time>2021-05-11T10:49:29+02:00</time>
      </trkpt>
      <trkpt lat="44.48564" lon="1.84375">
        <ele>151</ele>
        <time>2021-05-11T10:49:50+02:00</time>
      </trkpt>
      <trkpt lat="44.48574" lon="1.84355">
        <ele>151</ele>
        <time>2021-05-11T10:52:30+02:00</time>
      </trkpt>
      <trkpt lat="44.48564" lon="1.84385">
        <ele>152</ele>
        <time>2021-05-11T10:52:32+02:00</time>
      </trkpt>
      <trkpt lat="44.48544" lon="1.84397">
        <ele>149</ele>
        <time>2021-05-11T12:11:08+02:00</time>
      </trkpt>
      <trkpt lat="44.48546" lon="1.84384">
        <ele>150</ele>
        <time>2021-05-11T12:11:12+02:00</time>
      </trkpt>
      <trkpt lat="44.48568" lon="1.8438">
        <ele>152</ele>
        <time>2021-05-11T12:17:34+02:00</time>
      </trkpt>
      <trkpt lat="44.48586" lon="1.84359">
        <ele>152</ele>
        <time>2021-05-11T12:17:55+02:00</time>
      </trkpt>
      <trkpt lat="44.48606" lon="1.84342">
        <ele>152</ele>
        <time>2021-05-11T12:18:15+02:00</time>
      </trkpt>
      <trkpt lat="44.48625" lon="1.84324">
        <ele>150</ele>
        <time>2021-05-11T12:18:37+02:00</time>
      </trkpt>
      <trkpt lat="44.48645" lon="1.84307">
        <ele>153</ele>
        <time>2021-05-11T12:18:57+02:00</time>
      </trkpt>
      <trkpt lat="44.48653" lon="1.84277">
        <ele>152</ele>
        <time>2021-05-11T12:19:18+02:00</time>
      </trkpt>
      <trkpt lat="44.48652" lon="1.84244">
        <ele>152</ele>
        <time>2021-05-11T12:19:39+02:00</time>
      </trkpt>
      <trkpt lat="44.48639" lon="1.84216">
        <ele>151</ele>
        <time>2021-05-11T12:19:57+02:00</time>
      </trkpt>
      <trkpt lat="44.48617" lon="1.84227">
        <ele>152</ele>
        <time>2021-05-11T12:20:22+02:00</time>
      </trkpt>
      <trkpt lat="44.48594" lon="1.8423">
        <ele>152</ele>
        <time>2021-05-11T12:20:42+02:00</time>
      </trkpt>
      <trkpt lat="44.48577" lon="1.84251">
        <ele>151</ele>
        <time>2021-05-11T12:21:06+02:00</time>
      </trkpt>
      <trkpt lat="44.48555" lon="1.84261">
        <ele>151</ele>
        <time>2021-05-11T12:21:32+02:00</time>
      </trkpt>
      <trkpt lat="44.48531" lon="1.84264">
        <ele>149</ele>
        <time>2021-05-11T12:21:55+02:00</time>
      </trkpt>
      <trkpt lat="44.48517" lon="1.84289">
        <ele>150</ele>
        <time>2021-05-11T12:22:16+02:00</time>
      </trkpt>
      <trkpt lat="44.48495" lon="1.84298">
        <ele>150</ele>
        <time>2021-05-11T12:22:36+02:00</time>
      </trkpt>
      <trkpt lat="44.48472" lon="1.84307">
        <ele>150</ele>
        <time>2021-05-11T12:22:56+02:00</time>
      </trkpt>
      <trkpt lat="44.4845" lon="1.84306">
        <ele>149</ele>
        <time>2021-05-11T12:23:19+02:00</time>
      </trkpt>
      <trkpt lat="44.48428" lon="1.84317">
        <ele>148</ele>
        <time>2021-05-11T12:23:40+02:00</time>
      </trkpt>
      <trkpt lat="44.48406" lon="1.84324">
        <ele>147</ele>
        <time>2021-05-11T12:24:04+02:00</time>
      </trkpt>
      <trkpt lat="44.48383" lon="1.84331">
        <ele>151</ele>
        <time>2021-05-11T12:24:25+02:00</time>
      </trkpt>
      <trkpt lat="44.48362" lon="1.84348">
        <ele>147</ele>
        <time>2021-05-11T12:24:49+02:00</time>
      </trkpt>
      <trkpt lat="44.48341" lon="1.84362">
        <ele>149</ele>
        <time>2021-05-11T12:25:06+02:00</time>
      </trkpt>
      <trkpt lat="44.48318" lon="1.84358">
        <ele>147</ele>
        <time>2021-05-11T12:25:57+02:00</time>
      </trkpt>
      <trkpt lat="44.4831" lon="1.84327">
        <ele>146</ele>
        <time>2021-05-11T12:26:20+02:00</time>
      </trkpt>
      <trkpt lat="44.483" lon="1.84298">
        <ele>147</ele>
        <time>2021-05-11T12:26:40+02:00</time>
      </trkpt>
      <trkpt lat="44.48288" lon="1.84271">
        <ele>147</ele>
        <time>2021-05-11T12:27:03+02:00</time>
      </trkpt>
      <trkpt lat="44.48277" lon="1.84242">
        <ele>147</ele>
        <time>2021-05-11T12:27:22+02:00</time>
      </trkpt>
      <trkpt lat="44.48269" lon="1.84213">
        <ele>148</ele>
        <time>2021-05-11T12:27:42+02:00</time>
      </trkpt>
      <trkpt lat="44.48259" lon="1.84184">
        <ele>148</ele>
        <time>2021-05-11T12:28:01+02:00</time>
      </trkpt>
      <trkpt lat="44.48246" lon="1.84158">
        <ele>148</ele>
        <time>2021-05-11T12:28:25+02:00</time>
      </trkpt>
      <trkpt lat="44.48229" lon="1.84136">
        <ele>146</ele>
        <time>2021-05-11T12:28:44+02:00</time>
      </trkpt>
      <trkpt lat="44.48212" lon="1.84111">
        <ele>148</ele>
        <time>2021-05-11T12:29:03+02:00</time>
      </trkpt>
      <trkpt lat="44.48198" lon="1.84087">
        <ele>148</ele>
        <time>2021-05-11T12:29:22+02:00</time>
      </trkpt>
      <trkpt lat="44.48182" lon="1.84063">
        <ele>149</ele>
        <time>2021-05-11T12:29:41+02:00</time>
      </trkpt>
      <trkpt lat="44.48166" lon="1.84039">
        <ele>147</ele>
        <time>2021-05-11T12:30:01+02:00</time>
      </trkpt>
      <trkpt lat="44.48152" lon="1.84015">
        <ele>146</ele>
        <time>2021-05-11T12:30:21+02:00</time>
      </trkpt>
      <trkpt lat="44.48134" lon="1.83994">
        <ele>147</ele>
        <time>2021-05-11T12:30:40+02:00</time>
      </trkpt>
      <trkpt lat="44.48116" lon="1.83975">
        <ele>148</ele>
        <time>2021-05-11T12:31:00+02:00</time>
      </trkpt>
      <trkpt lat="44.48098" lon="1.83952">
        <ele>147</ele>
        <time>2021-05-11T12:31:21+02:00</time>
      </trkpt>
      <trkpt lat="44.48078" lon="1.83933">
        <ele>149</ele>
        <time>2021-05-11T12:31:41+02:00</time>
      </trkpt>
      <trkpt lat="44.48059" lon="1.83914">
        <ele>148</ele>
        <time>2021-05-11T12:32:01+02:00</time>
      </trkpt>
      <trkpt lat="44.48039" lon="1.83898">
        <ele>146</ele>
        <time>2021-05-11T12:32:21+02:00</time>
      </trkpt>
      <trkpt lat="44.4802" lon="1.8388">
        <ele>148</ele>
        <time>2021-05-11T12:32:39+02:00</time>
      </trkpt>
      <trkpt lat="44.48003" lon="1.83859">
        <ele>147</ele>
        <time>2021-05-11T12:32:58+02:00</time>
      </trkpt>
      <trkpt lat="44.47984" lon="1.83838">
        <ele>148</ele>
        <time>2021-05-11T12:33:19+02:00</time>
      </trkpt>
      <trkpt lat="44.47967" lon="1.83818">
        <ele>145</ele>
        <time>2021-05-11T12:33:37+02:00</time>
      </trkpt>
      <trkpt lat="44.4795" lon="1.83797">
        <ele>147</ele>
        <time>2021-05-11T12:33:56+02:00</time>
      </trkpt>
      <trkpt lat="44.47932" lon="1.83778">
        <ele>146</ele>
        <time>2021-05-11T12:34:14+02:00</time>
      </trkpt>
      <trkpt lat="44.47914" lon="1.83758">
        <ele>146</ele>
        <time>2021-05-11T12:34:33+02:00</time>
      </trkpt>
      <trkpt lat="44.47894" lon="1.83739">
        <ele>146</ele>
        <time>2021-05-11T12:34:52+02:00</time>
      </trkpt>
      <trkpt lat="44.47875" lon="1.83722">
        <ele>148</ele>
        <time>2021-05-11T12:35:11+02:00</time>
      </trkpt>
      <trkpt lat="44.47854" lon="1.83707">
        <ele>146</ele>
        <time>2021-05-11T12:35:34+02:00</time>
      </trkpt>
      <trkpt lat="44.47834" lon="1.83689">
        <ele>147</ele>
        <time>2021-05-11T12:35:53+02:00</time>
      </trkpt>
      <trkpt lat="44.47814" lon="1.83672">
        <ele>151</ele>
        <time>2021-05-11T12:36:11+02:00</time>
      </trkpt>
      <trkpt lat="44.47793" lon="1.8366">
        <ele>154</ele>
        <time>2021-05-11T12:36:32+02:00</time>
      </trkpt>
      <trkpt lat="44.47771" lon="1.83653">
        <ele>158</ele>
        <time>2021-05-11T12:37:00+02:00</time>
      </trkpt>
      <trkpt lat="44.47748" lon="1.83659">
        <ele>157</ele>
        <time>2021-05-11T12:37:57+02:00</time>
      </trkpt>
      <trkpt lat="44.47726" lon="1.83668">
        <ele>157</ele>
        <time>2021-05-11T12:38:28+02:00</time>
      </trkpt>
      <trkpt lat="44.47704" lon="1.83676">
        <ele>155</ele>
        <time>2021-05-11T12:38:53+02:00</time>
      </trkpt>
      <trkpt lat="44.47719" lon="1.83653">
        <ele>164</ele>
        <time>2021-05-11T12:41:25+02:00</time>
      </trkpt>
      <trkpt lat="44.47696" lon="1.83646">
        <ele>170</ele>
        <time>2021-05-11T12:42:12+02:00</time>
      </trkpt>
      <trkpt lat="44.47674" lon="1.83644">
        <ele>171</ele>
        <time>2021-05-11T12:42:35+02:00</time>
      </trkpt>
      <trkpt lat="44.47651" lon="1.83648">
        <ele>172</ele>
        <time>2021-05-11T12:42:53+02:00</time>
      </trkpt>
      <trkpt lat="44.47628" lon="1.83654">
        <ele>173</ele>
        <time>2021-05-11T12:43:14+02:00</time>
      </trkpt>
      <trkpt lat="44.47605" lon="1.83655">
        <ele>175</ele>
        <time>2021-05-11T12:43:36+02:00</time>
      </trkpt>
      <trkpt lat="44.47583" lon="1.83649">
        <ele>180</ele>
        <time>2021-05-11T12:43:58+02:00</time>
      </trkpt>
      <trkpt lat="44.47563" lon="1.83634">
        <ele>181</ele>
        <time>2021-05-11T12:44:16+02:00</time>
      </trkpt>
      <trkpt lat="44.47543" lon="1.83619">
        <ele>181</ele>
        <time>2021-05-11T12:44:37+02:00</time>
      </trkpt>
      <trkpt lat="44.47521" lon="1.8361">
        <ele>181</ele>
        <time>2021-05-11T12:44:57+02:00</time>
      </trkpt>
      <trkpt lat="44.47498" lon="1.83614">
        <ele>182</ele>
        <time>2021-05-11T12:45:19+02:00</time>
      </trkpt>
      <trkpt lat="44.47475" lon="1.83621">
        <ele>182</ele>
        <time>2021-05-11T12:45:39+02:00</time>
      </trkpt>
      <trkpt lat="44.47453" lon="1.83628">
        <ele>185</ele>
        <time>2021-05-11T12:45:58+02:00</time>
      </trkpt>
      <trkpt lat="44.47431" lon="1.83637">
        <ele>182</ele>
        <time>2021-05-11T12:46:17+02:00</time>
      </trkpt>
      <trkpt lat="44.47409" lon="1.83649">
        <ele>182</ele>
        <time>2021-05-11T12:46:37+02:00</time>
      </trkpt>
      <trkpt lat="44.47389" lon="1.83662">
        <ele>185</ele>
        <time>2021-05-11T12:46:56+02:00</time>
      </trkpt>
      <trkpt lat="44.47367" lon="1.83676">
        <ele>185</ele>
        <time>2021-05-11T12:47:17+02:00</time>
      </trkpt>
      <trkpt lat="44.47347" lon="1.83691">
        <ele>184</ele>
        <time>2021-05-11T12:47:36+02:00</time>
      </trkpt>
      <trkpt lat="44.47326" lon="1.83706">
        <ele>182</ele>
        <time>2021-05-11T12:47:55+02:00</time>
      </trkpt>
      <trkpt lat="44.47305" lon="1.8372">
        <ele>180</ele>
        <time>2021-05-11T12:48:15+02:00</time>
      </trkpt>
      <trkpt lat="44.47283" lon="1.83733">
        <ele>179</ele>
        <time>2021-05-11T12:48:34+02:00</time>
      </trkpt>
      <trkpt lat="44.47262" lon="1.83745">
        <ele>179</ele>
        <time>2021-05-11T12:48:53+02:00</time>
      </trkpt>
      <trkpt lat="44.47241" lon="1.83758">
        <ele>178</ele>
        <time>2021-05-11T12:49:11+02:00</time>
      </trkpt>
      <trkpt lat="44.4722" lon="1.83771">
        <ele>178</ele>
        <time>2021-05-11T12:49:30+02:00</time>
      </trkpt>
      <trkpt lat="44.47199" lon="1.83783">
        <ele>176</ele>
        <time>2021-05-11T12:49:48+02:00</time>
      </trkpt>
      <trkpt lat="44.47178" lon="1.83795">
        <ele>177</ele>
        <time>2021-05-11T12:50:06+02:00</time>
      </trkpt>
      <trkpt lat="44.47156" lon="1.83805">
        <ele>177</ele>
        <time>2021-05-11T12:50:24+02:00</time>
      </trkpt>
      <trkpt lat="44.47134" lon="1.83815">
        <ele>175</ele>
        <time>2021-05-11T12:50:44+02:00</time>
      </trkpt>
      <trkpt lat="44.47111" lon="1.83825">
        <ele>173</ele>
        <time>2021-05-11T12:51:03+02:00</time>
      </trkpt>
      <trkpt lat="44.47088" lon="1.83829">
        <ele>170</ele>
        <time>2021-05-11T12:51:22+02:00</time>
      </trkpt>
      <trkpt lat="44.47066" lon="1.83832">
        <ele>165</ele>
        <time>2021-05-11T12:51:41+02:00</time>
      </trkpt>
      <trkpt lat="44.47043" lon="1.83837">
        <ele>164</ele>
        <time>2021-05-11T12:51:59+02:00</time>
      </trkpt>
      <trkpt lat="44.47021" lon="1.83837">
        <ele>160</ele>
        <time>2021-05-11T12:52:18+02:00</time>
      </trkpt>
      <trkpt lat="44.46997" lon="1.83837">
        <ele>158</ele>
        <time>2021-05-11T12:52:35+02:00</time>
      </trkpt>
      <trkpt lat="44.46975" lon="1.83841">
        <ele>156</ele>
        <time>2021-05-11T12:52:54+02:00</time>
      </trkpt>
      <trkpt lat="44.46951" lon="1.83843">
        <ele>155</ele>
        <time>2021-05-11T12:53:14+02:00</time>
      </trkpt>
      <trkpt lat="44.46927" lon="1.83842">
        <ele>153</ele>
        <time>2021-05-11T12:53:34+02:00</time>
      </trkpt>
      <trkpt lat="44.46904" lon="1.8384">
        <ele>152</ele>
        <time>2021-05-11T12:53:55+02:00</time>
      </trkpt>
      <trkpt lat="44.46881" lon="1.83834">
        <ele>149</ele>
        <time>2021-05-11T12:54:14+02:00</time>
      </trkpt>
      <trkpt lat="44.46858" lon="1.83828">
        <ele>150</ele>
        <time>2021-05-11T12:54:34+02:00</time>
      </trkpt>
      <trkpt lat="44.46835" lon="1.83817">
        <ele>150</ele>
        <time>2021-05-11T12:54:52+02:00</time>
      </trkpt>
      <trkpt lat="44.46815" lon="1.83802">
        <ele>147</ele>
        <time>2021-05-11T12:55:18+02:00</time>
      </trkpt>
      <trkpt lat="44.46809" lon="1.8377">
        <ele>148</ele>
        <time>2021-05-11T12:55:37+02:00</time>
      </trkpt>
      <trkpt lat="44.46813" lon="1.83739">
        <ele>151</ele>
        <time>2021-05-11T12:55:54+02:00</time>
      </trkpt>
      <trkpt lat="44.46818" lon="1.83707">
        <ele>151</ele>
        <time>2021-05-11T12:56:13+02:00</time>
      </trkpt>
      <trkpt lat="44.4682" lon="1.83675">
        <ele>151</ele>
        <time>2021-05-11T12:56:32+02:00</time>
      </trkpt>
      <trkpt lat="44.46819" lon="1.83641">
        <ele>152</ele>
        <time>2021-05-11T12:56:52+02:00</time>
      </trkpt>
      <trkpt lat="44.46818" lon="1.83609">
        <ele>151</ele>
        <time>2021-05-11T12:57:12+02:00</time>
      </trkpt>
      <trkpt lat="44.46819" lon="1.83577">
        <ele>150</ele>
        <time>2021-05-11T12:57:30+02:00</time>
      </trkpt>
      <trkpt lat="44.46825" lon="1.83546">
        <ele>151</ele>
        <time>2021-05-11T12:57:48+02:00</time>
      </trkpt>
      <trkpt lat="44.46831" lon="1.83515">
        <ele>149</ele>
        <time>2021-05-11T12:58:06+02:00</time>
      </trkpt>
      <trkpt lat="44.46838" lon="1.83484">
        <ele>150</ele>
        <time>2021-05-11T12:58:26+02:00</time>
      </trkpt>
      <trkpt lat="44.46842" lon="1.83452">
        <ele>150</ele>
        <time>2021-05-11T12:58:46+02:00</time>
      </trkpt>
      <trkpt lat="44.46846" lon="1.8342">
        <ele>148</ele>
        <time>2021-05-11T12:59:05+02:00</time>
      </trkpt>
      <trkpt lat="44.46851" lon="1.83388">
        <ele>150</ele>
        <time>2021-05-11T12:59:23+02:00</time>
      </trkpt>
      <trkpt lat="44.46854" lon="1.83356">
        <ele>149</ele>
        <time>2021-05-11T12:59:42+02:00</time>
      </trkpt>
      <trkpt lat="44.46858" lon="1.83324">
        <ele>148</ele>
        <time>2021-05-11T13:00:01+02:00</time>
      </trkpt>
      <trkpt lat="44.46862" lon="1.83293">
        <ele>149</ele>
        <time>2021-05-11T13:00:19+02:00</time>
      </trkpt>
      <trkpt lat="44.46864" lon="1.83261">
        <ele>148</ele>
        <time>2021-05-11T13:00:37+02:00</time>
      </trkpt>
      <trkpt lat="44.46865" lon="1.83228">
        <ele>149</ele>
        <time>2021-05-11T13:00:57+02:00</time>
      </trkpt>
      <trkpt lat="44.46864" lon="1.83195">
        <ele>149</ele>
        <time>2021-05-11T13:01:17+02:00</time>
      </trkpt>
      <trkpt lat="44.46864" lon="1.83164">
        <ele>150</ele>
        <time>2021-05-11T13:01:35+02:00</time>
      </trkpt>
      <trkpt lat="44.46863" lon="1.83131">
        <ele>150</ele>
        <time>2021-05-11T13:01:55+02:00</time>
      </trkpt>
      <trkpt lat="44.46861" lon="1.831">
        <ele>145</ele>
        <time>2021-05-11T13:02:41+02:00</time>
      </trkpt>
      <trkpt lat="44.46858" lon="1.83068">
        <ele>142</ele>
        <time>2021-05-11T13:03:00+02:00</time>
      </trkpt>
      <trkpt lat="44.46857" lon="1.83036">
        <ele>142</ele>
        <time>2021-05-11T13:03:19+02:00</time>
      </trkpt>
      <trkpt lat="44.46854" lon="1.83003">
        <ele>141</ele>
        <time>2021-05-11T13:03:38+02:00</time>
      </trkpt>
      <trkpt lat="44.46862" lon="1.82972">
        <ele>142</ele>
        <time>2021-05-11T13:04:03+02:00</time>
      </trkpt>
      <trkpt lat="44.4686" lon="1.8294">
        <ele>144</ele>
        <time>2021-05-11T13:04:23+02:00</time>
      </trkpt>
      <trkpt lat="44.4685" lon="1.82909">
        <ele>150</ele>
        <time>2021-05-11T13:04:42+02:00</time>
      </trkpt>
      <trkpt lat="44.46863" lon="1.82883">
        <ele>158</ele>
        <time>2021-05-11T13:05:11+02:00</time>
      </trkpt>
      <trkpt lat="44.46885" lon="1.82893">
        <ele>157</ele>
        <time>2021-05-11T13:05:31+02:00</time>
      </trkpt>
      <trkpt lat="44.46907" lon="1.82901">
        <ele>153</ele>
        <time>2021-05-11T13:05:51+02:00</time>
      </trkpt>
      <trkpt lat="44.46929" lon="1.82913">
        <ele>150</ele>
        <time>2021-05-11T13:06:12+02:00</time>
      </trkpt>
      <trkpt lat="44.4695" lon="1.8293">
        <ele>149</ele>
        <time>2021-05-11T13:06:29+02:00</time>
      </trkpt>
      <trkpt lat="44.46971" lon="1.82944">
        <ele>147</ele>
        <time>2021-05-11T13:06:49+02:00</time>
      </trkpt>
      <trkpt lat="44.46993" lon="1.82955">
        <ele>145</ele>
        <time>2021-05-11T13:07:09+02:00</time>
      </trkpt>
      <trkpt lat="44.47014" lon="1.82965">
        <ele>144</ele>
        <time>2021-05-11T13:07:27+02:00</time>
      </trkpt>
      <trkpt lat="44.47036" lon="1.82976">
        <ele>145</ele>
        <time>2021-05-11T13:07:45+02:00</time>
      </trkpt>
      <trkpt lat="44.47058" lon="1.82985">
        <ele>143</ele>
        <time>2021-05-11T13:08:05+02:00</time>
      </trkpt>
      <trkpt lat="44.4708" lon="1.82993">
        <ele>143</ele>
        <time>2021-05-11T13:08:25+02:00</time>
      </trkpt>
      <trkpt lat="44.47103" lon="1.83002">
        <ele>143</ele>
        <time>2021-05-11T13:08:44+02:00</time>
      </trkpt>
      <trkpt lat="44.47125" lon="1.83012">
        <ele>143</ele>
        <time>2021-05-11T13:09:04+02:00</time>
      </trkpt>
      <trkpt lat="44.47148" lon="1.83018">
        <ele>142</ele>
        <time>2021-05-11T13:09:22+02:00</time>
      </trkpt>
      <trkpt lat="44.47171" lon="1.83021">
        <ele>140</ele>
        <time>2021-05-11T13:09:41+02:00</time>
      </trkpt>
      <trkpt lat="44.47193" lon="1.83028">
        <ele>143</ele>
        <time>2021-05-11T13:09:59+02:00</time>
      </trkpt>
      <trkpt lat="44.47216" lon="1.83021">
        <ele>143</ele>
        <time>2021-05-11T13:10:18+02:00</time>
      </trkpt>
      <trkpt lat="44.47233" lon="1.83">
        <ele>146</ele>
        <time>2021-05-11T13:10:36+02:00</time>
      </trkpt>
      <trkpt lat="44.47243" lon="1.82972">
        <ele>147</ele>
        <time>2021-05-11T13:10:54+02:00</time>
      </trkpt>
      <trkpt lat="44.47253" lon="1.82942">
        <ele>151</ele>
        <time>2021-05-11T13:11:15+02:00</time>
      </trkpt>
      <trkpt lat="44.47264" lon="1.82915">
        <ele>152</ele>
        <time>2021-05-11T13:11:34+02:00</time>
      </trkpt>
      <trkpt lat="44.47274" lon="1.82885">
        <ele>156</ele>
        <time>2021-05-11T13:11:55+02:00</time>
      </trkpt>
      <trkpt lat="44.47285" lon="1.82856">
        <ele>156</ele>
        <time>2021-05-11T13:12:15+02:00</time>
      </trkpt>
      <trkpt lat="44.47265" lon="1.8284">
        <ele>158</ele>
        <time>2021-05-11T13:22:56+02:00</time>
      </trkpt>
      <trkpt lat="44.47242" lon="1.82846">
        <ele>162</ele>
        <time>2021-05-11T13:23:20+02:00</time>
      </trkpt>
      <trkpt lat="44.47219" lon="1.82856">
        <ele>167</ele>
        <time>2021-05-11T13:23:43+02:00</time>
      </trkpt>
      <trkpt lat="44.47198" lon="1.82866">
        <ele>166</ele>
        <time>2021-05-11T13:24:07+02:00</time>
      </trkpt>
      <trkpt lat="44.47175" lon="1.8287">
        <ele>170</ele>
        <time>2021-05-11T13:24:30+02:00</time>
      </trkpt>
      <trkpt lat="44.47152" lon="1.8287">
        <ele>174</ele>
        <time>2021-05-11T13:24:53+02:00</time>
      </trkpt>
      <trkpt lat="44.47132" lon="1.82885">
        <ele>173</ele>
        <time>2021-05-11T13:25:17+02:00</time>
      </trkpt>
      <trkpt lat="44.47114" lon="1.82905">
        <ele>175</ele>
        <time>2021-05-11T13:25:41+02:00</time>
      </trkpt>
      <trkpt lat="44.47092" lon="1.82913">
        <ele>173</ele>
        <time>2021-05-11T13:26:20+02:00</time>
      </trkpt>
      <trkpt lat="44.4707" lon="1.82902">
        <ele>173</ele>
        <time>2021-05-11T13:26:47+02:00</time>
      </trkpt>
      <trkpt lat="44.47053" lon="1.8288">
        <ele>175</ele>
        <time>2021-05-11T13:27:10+02:00</time>
      </trkpt>
      <trkpt lat="44.47034" lon="1.82863">
        <ele>178</ele>
        <time>2021-05-11T13:27:32+02:00</time>
      </trkpt>
      <trkpt lat="44.47012" lon="1.8285">
        <ele>179</ele>
        <time>2021-05-11T13:27:56+02:00</time>
      </trkpt>
      <trkpt lat="44.46988" lon="1.82844">
        <ele>179</ele>
        <time>2021-05-11T13:28:17+02:00</time>
      </trkpt>
      <trkpt lat="44.46966" lon="1.82847">
        <ele>177</ele>
        <time>2021-05-11T13:28:38+02:00</time>
      </trkpt>
      <trkpt lat="44.46943" lon="1.82846">
        <ele>175</ele>
        <time>2021-05-11T13:28:59+02:00</time>
      </trkpt>
      <trkpt lat="44.46921" lon="1.82839">
        <ele>175</ele>
        <time>2021-05-11T13:29:19+02:00</time>
      </trkpt>
      <trkpt lat="44.46899" lon="1.82828">
        <ele>177</ele>
        <time>2021-05-11T13:29:40+02:00</time>
      </trkpt>
      <trkpt lat="44.46876" lon="1.82831">
        <ele>175</ele>
        <time>2021-05-11T13:29:59+02:00</time>
      </trkpt>
      <trkpt lat="44.46853" lon="1.82833">
        <ele>173</ele>
        <time>2021-05-11T13:30:21+02:00</time>
      </trkpt>
      <trkpt lat="44.4683" lon="1.82838">
        <ele>172</ele>
        <time>2021-05-11T13:30:45+02:00</time>
      </trkpt>
      <trkpt lat="44.46807" lon="1.82841">
        <ele>173</ele>
        <time>2021-05-11T13:31:05+02:00</time>
      </trkpt>
      <trkpt lat="44.46784" lon="1.82839">
        <ele>172</ele>
        <time>2021-05-11T13:31:24+02:00</time>
      </trkpt>
      <trkpt lat="44.46761" lon="1.82834">
        <ele>174</ele>
        <time>2021-05-11T13:31:43+02:00</time>
      </trkpt>
      <trkpt lat="44.46739" lon="1.82836">
        <ele>172</ele>
        <time>2021-05-11T13:32:04+02:00</time>
      </trkpt>
      <trkpt lat="44.46716" lon="1.82842">
        <ele>168</ele>
        <time>2021-05-11T13:32:25+02:00</time>
      </trkpt>
      <trkpt lat="44.46692" lon="1.82842">
        <ele>168</ele>
        <time>2021-05-11T13:32:46+02:00</time>
      </trkpt>
      <trkpt lat="44.46669" lon="1.8284">
        <ele>168</ele>
        <time>2021-05-11T13:33:04+02:00</time>
      </trkpt>
      <trkpt lat="44.46645" lon="1.82837">
        <ele>166</ele>
        <time>2021-05-11T13:33:25+02:00</time>
      </trkpt>
      <trkpt lat="44.46623" lon="1.82846">
        <ele>166</ele>
        <time>2021-05-11T13:33:45+02:00</time>
      </trkpt>
      <trkpt lat="44.46601" lon="1.82837">
        <ele>165</ele>
        <time>2021-05-11T13:34:07+02:00</time>
      </trkpt>
      <trkpt lat="44.4659" lon="1.82809">
        <ele>167</ele>
        <time>2021-05-11T13:34:26+02:00</time>
      </trkpt>
      <trkpt lat="44.46579" lon="1.82779">
        <ele>168</ele>
        <time>2021-05-11T13:34:46+02:00</time>
      </trkpt>
      <trkpt lat="44.46573" lon="1.8281">
        <ele>170</ele>
        <time>2021-05-11T13:35:28+02:00</time>
      </trkpt>
      <trkpt lat="44.46582" lon="1.82842">
        <ele>167</ele>
        <time>2021-05-11T13:35:52+02:00</time>
      </trkpt>
      <trkpt lat="44.46559" lon="1.82841">
        <ele>168</ele>
        <time>2021-05-11T13:36:20+02:00</time>
      </trkpt>
      <trkpt lat="44.46546" lon="1.82813">
        <ele>172</ele>
        <time>2021-05-11T13:36:43+02:00</time>
      </trkpt>
      <trkpt lat="44.46529" lon="1.82791">
        <ele>175</ele>
        <time>2021-05-11T13:37:04+02:00</time>
      </trkpt>
      <trkpt lat="44.46514" lon="1.82766">
        <ele>179</ele>
        <time>2021-05-11T13:37:25+02:00</time>
      </trkpt>
      <trkpt lat="44.46497" lon="1.82745">
        <ele>180</ele>
        <time>2021-05-11T13:37:48+02:00</time>
      </trkpt>
      <trkpt lat="44.46481" lon="1.82722">
        <ele>181</ele>
        <time>2021-05-11T13:38:09+02:00</time>
      </trkpt>
      <trkpt lat="44.46464" lon="1.827">
        <ele>183</ele>
        <time>2021-05-11T13:38:29+02:00</time>
      </trkpt>
      <trkpt lat="44.46448" lon="1.82678">
        <ele>182</ele>
        <time>2021-05-11T13:38:51+02:00</time>
      </trkpt>
      <trkpt lat="44.46431" lon="1.82657">
        <ele>182</ele>
        <time>2021-05-11T13:39:12+02:00</time>
      </trkpt>
      <trkpt lat="44.46413" lon="1.82636">
        <ele>183</ele>
        <time>2021-05-11T13:39:32+02:00</time>
      </trkpt>
      <trkpt lat="44.46394" lon="1.82618">
        <ele>185</ele>
        <time>2021-05-11T13:39:53+02:00</time>
      </trkpt>
      <trkpt lat="44.46373" lon="1.82605">
        <ele>183</ele>
        <time>2021-05-11T13:40:16+02:00</time>
      </trkpt>
      <trkpt lat="44.46353" lon="1.82591">
        <ele>186</ele>
        <time>2021-05-11T13:40:37+02:00</time>
      </trkpt>
      <trkpt lat="44.46332" lon="1.82581">
        <ele>186</ele>
        <time>2021-05-11T13:40:58+02:00</time>
      </trkpt>
      <trkpt lat="44.46311" lon="1.82566">
        <ele>188</ele>
        <time>2021-05-11T13:41:19+02:00</time>
      </trkpt>
      <trkpt lat="44.46291" lon="1.8255">
        <ele>189</ele>
        <time>2021-05-11T13:41:43+02:00</time>
      </trkpt>
      <trkpt lat="44.46272" lon="1.82532">
        <ele>191</ele>
        <time>2021-05-11T13:42:06+02:00</time>
      </trkpt>
      <trkpt lat="44.46254" lon="1.82511">
        <ele>192</ele>
        <time>2021-05-11T13:42:30+02:00</time>
      </trkpt>
      <trkpt lat="44.46239" lon="1.82487">
        <ele>196</ele>
        <time>2021-05-11T13:42:52+02:00</time>
      </trkpt>
      <trkpt lat="44.46222" lon="1.82466">
        <ele>197</ele>
        <time>2021-05-11T13:43:13+02:00</time>
      </trkpt>
      <trkpt lat="44.46202" lon="1.82451">
        <ele>200</ele>
        <time>2021-05-11T13:43:35+02:00</time>
      </trkpt>
      <trkpt lat="44.46178" lon="1.82449">
        <ele>203</ele>
        <time>2021-05-11T13:43:59+02:00</time>
      </trkpt>
      <trkpt lat="44.46157" lon="1.82434">
        <ele>205</ele>
        <time>2021-05-11T13:44:24+02:00</time>
      </trkpt>
      <trkpt lat="44.4582" lon="1.82341">
        <ele>242</ele>
        <time>2021-05-11T14:02:03+02:00</time>
      </trkpt>
      <trkpt lat="44.45797" lon="1.82346">
        <ele>243</ele>
        <time>2021-05-11T14:03:54+02:00</time>
      </trkpt>
      <trkpt lat="44.45776" lon="1.82332">
        <ele>246</ele>
        <time>2021-05-11T14:04:28+02:00</time>
      </trkpt>
      <trkpt lat="44.45755" lon="1.82323">
        <ele>248</ele>
        <time>2021-05-11T14:04:55+02:00</time>
      </trkpt>
      <trkpt lat="44.45732" lon="1.82331">
        <ele>250</ele>
        <time>2021-05-11T14:05:23+02:00</time>
      </trkpt>
      <trkpt lat="44.45735" lon="1.82363">
        <ele>253</ele>
        <time>2021-05-11T14:05:47+02:00</time>
      </trkpt>
      <trkpt lat="44.45729" lon="1.82395">
        <ele>257</ele>
        <time>2021-05-11T14:06:14+02:00</time>
      </trkpt>
      <trkpt lat="44.45718" lon="1.82422">
        <ele>260</ele>
        <time>2021-05-11T14:06:44+02:00</time>
      </trkpt>
      <trkpt lat="44.45694" lon="1.82423">
        <ele>261</ele>
        <time>2021-05-11T14:07:06+02:00</time>
      </trkpt>
      <trkpt lat="44.45676" lon="1.82441">
        <ele>263</ele>
        <time>2021-05-11T14:07:30+02:00</time>
      </trkpt>
      <trkpt lat="44.45662" lon="1.82467">
        <ele>268</ele>
        <time>2021-05-11T14:09:56+02:00</time>
      </trkpt>
      <trkpt lat="44.45654" lon="1.82497">
        <ele>271</ele>
        <time>2021-05-11T14:10:26+02:00</time>
      </trkpt>
      <trkpt lat="44.45655" lon="1.82529">
        <ele>276</ele>
        <time>2021-05-11T14:10:54+02:00</time>
      </trkpt>
      <trkpt lat="44.45664" lon="1.82559">
        <ele>279</ele>
        <time>2021-05-11T14:11:22+02:00</time>
      </trkpt>
      <trkpt lat="44.45667" lon="1.82591">
        <ele>281</ele>
        <time>2021-05-11T14:11:50+02:00</time>
      </trkpt>
      <trkpt lat="44.45661" lon="1.82622">
        <ele>286</ele>
        <time>2021-05-11T14:12:17+02:00</time>
      </trkpt>
      <trkpt lat="44.45649" lon="1.82649">
        <ele>287</ele>
        <time>2021-05-11T14:12:48+02:00</time>
      </trkpt>
      <trkpt lat="44.45641" lon="1.82679">
        <ele>290</ele>
        <time>2021-05-11T14:13:12+02:00</time>
      </trkpt>
      <trkpt lat="44.45634" lon="1.82709">
        <ele>293</ele>
        <time>2021-05-11T14:13:40+02:00</time>
      </trkpt>
      <trkpt lat="44.45626" lon="1.82739">
        <ele>296</ele>
        <time>2021-05-11T14:14:06+02:00</time>
      </trkpt>
      <trkpt lat="44.45621" lon="1.8277">
        <ele>300</ele>
        <time>2021-05-11T14:14:29+02:00</time>
      </trkpt>
      <trkpt lat="44.45614" lon="1.82801">
        <ele>302</ele>
        <time>2021-05-11T14:14:53+02:00</time>
      </trkpt>
      <trkpt lat="44.45605" lon="1.82829">
        <ele>305</ele>
        <time>2021-05-11T14:15:16+02:00</time>
      </trkpt>
      <trkpt lat="44.45597" lon="1.8286">
        <ele>306</ele>
        <time>2021-05-11T14:15:40+02:00</time>
      </trkpt>
      <trkpt lat="44.45576" lon="1.82872">
        <ele>309</ele>
        <time>2021-05-11T14:16:03+02:00</time>
      </trkpt>
      <trkpt lat="44.45554" lon="1.82882">
        <ele>311</ele>
        <time>2021-05-11T14:16:30+02:00</time>
      </trkpt>
      <trkpt lat="44.45532" lon="1.8289">
        <ele>313</ele>
        <time>2021-05-11T14:16:54+02:00</time>
      </trkpt>
      <trkpt lat="44.45508" lon="1.82887">
        <ele>314</ele>
        <time>2021-05-11T14:17:15+02:00</time>
      </trkpt>
      <trkpt lat="44.45485" lon="1.82886">
        <ele>315</ele>
        <time>2021-05-11T14:17:37+02:00</time>
      </trkpt>
      <trkpt lat="44.45463" lon="1.82881">
        <ele>316</ele>
        <time>2021-05-11T14:17:57+02:00</time>
      </trkpt>
      <trkpt lat="44.45439" lon="1.8288">
        <ele>317</ele>
        <time>2021-05-11T14:18:17+02:00</time>
      </trkpt>
      <trkpt lat="44.45416" lon="1.82879">
        <ele>317</ele>
        <time>2021-05-11T14:18:36+02:00</time>
      </trkpt>
      <trkpt lat="44.45393" lon="1.8288">
        <ele>318</ele>
        <time>2021-05-11T14:18:57+02:00</time>
      </trkpt>
      <trkpt lat="44.45371" lon="1.8289">
        <ele>318</ele>
        <time>2021-05-11T14:19:16+02:00</time>
      </trkpt>
      <trkpt lat="44.45348" lon="1.829">
        <ele>318</ele>
        <time>2021-05-11T14:19:36+02:00</time>
      </trkpt>
      <trkpt lat="44.45327" lon="1.82909">
        <ele>318</ele>
        <time>2021-05-11T14:19:57+02:00</time>
      </trkpt>
      <trkpt lat="44.45304" lon="1.82917">
        <ele>319</ele>
        <time>2021-05-11T14:20:20+02:00</time>
      </trkpt>
      <trkpt lat="44.45281" lon="1.8291">
        <ele>318</ele>
        <time>2021-05-11T14:20:45+02:00</time>
      </trkpt>
      <trkpt lat="44.45258" lon="1.82919">
        <ele>320</ele>
        <time>2021-05-11T14:21:07+02:00</time>
      </trkpt>
      <trkpt lat="44.45236" lon="1.82923">
        <ele>322</ele>
        <time>2021-05-11T14:21:28+02:00</time>
      </trkpt>
      <trkpt lat="44.45213" lon="1.82917">
        <ele>322</ele>
        <time>2021-05-11T14:21:50+02:00</time>
      </trkpt>
      <trkpt lat="44.45191" lon="1.82911">
        <ele>325</ele>
        <time>2021-05-11T14:23:51+02:00</time>
      </trkpt>
      <trkpt lat="44.45168" lon="1.82906">
        <ele>329</ele>
        <time>2021-05-11T14:24:15+02:00</time>
      </trkpt>
      <trkpt lat="44.45145" lon="1.82902">
        <ele>329</ele>
        <time>2021-05-11T14:24:39+02:00</time>
      </trkpt>
      <trkpt lat="44.45123" lon="1.82893">
        <ele>334</ele>
        <time>2021-05-11T14:24:58+02:00</time>
      </trkpt>
      <trkpt lat="44.45101" lon="1.82885">
        <ele>335</ele>
        <time>2021-05-11T14:25:21+02:00</time>
      </trkpt>
      <trkpt lat="44.45078" lon="1.82879">
        <ele>338</ele>
        <time>2021-05-11T14:25:45+02:00</time>
      </trkpt>
      <trkpt lat="44.45055" lon="1.82877">
        <ele>338</ele>
        <time>2021-05-11T14:26:07+02:00</time>
      </trkpt>
      <trkpt lat="44.45034" lon="1.82892">
        <ele>340</ele>
        <time>2021-05-11T14:26:29+02:00</time>
      </trkpt>
      <trkpt lat="44.45011" lon="1.829">
        <ele>342</ele>
        <time>2021-05-11T14:26:49+02:00</time>
      </trkpt>
      <trkpt lat="44.44988" lon="1.82905">
        <ele>341</ele>
        <time>2021-05-11T14:27:09+02:00</time>
      </trkpt>
      <trkpt lat="44.44965" lon="1.82907">
        <ele>340</ele>
        <time>2021-05-11T14:27:29+02:00</time>
      </trkpt>
      <trkpt lat="44.44942" lon="1.82912">
        <ele>339</ele>
        <time>2021-05-11T14:27:50+02:00</time>
      </trkpt>
      <trkpt lat="44.4492" lon="1.8292">
        <ele>336</ele>
        <time>2021-05-11T14:28:11+02:00</time>
      </trkpt>
      <trkpt lat="44.44898" lon="1.8293">
        <ele>338</ele>
        <time>2021-05-11T14:28:31+02:00</time>
      </trkpt>
      <trkpt lat="44.44875" lon="1.82931">
        <ele>339</ele>
        <time>2021-05-11T14:28:51+02:00</time>
      </trkpt>
      <trkpt lat="44.44853" lon="1.82933">
        <ele>339</ele>
        <time>2021-05-11T14:29:42+02:00</time>
      </trkpt>
      <trkpt lat="44.4483" lon="1.8294">
        <ele>339</ele>
        <time>2021-05-11T14:30:03+02:00</time>
      </trkpt>
      <trkpt lat="44.44808" lon="1.82951">
        <ele>341</ele>
        <time>2021-05-11T14:30:24+02:00</time>
      </trkpt>
      <trkpt lat="44.44785" lon="1.82958">
        <ele>341</ele>
        <time>2021-05-11T14:30:44+02:00</time>
      </trkpt>
      <trkpt lat="44.44761" lon="1.82955">
        <ele>341</ele>
        <time>2021-05-11T14:31:04+02:00</time>
      </trkpt>
      <trkpt lat="44.44739" lon="1.82943">
        <ele>340</ele>
        <time>2021-05-11T14:31:24+02:00</time>
      </trkpt>
      <trkpt lat="44.44716" lon="1.82939">
        <ele>338</ele>
        <time>2021-05-11T14:31:45+02:00</time>
      </trkpt>
      <trkpt lat="44.44694" lon="1.82936">
        <ele>338</ele>
        <time>2021-05-11T14:32:04+02:00</time>
      </trkpt>
      <trkpt lat="44.44671" lon="1.82929">
        <ele>337</ele>
        <time>2021-05-11T14:32:24+02:00</time>
      </trkpt>
      <trkpt lat="44.44648" lon="1.82921">
        <ele>339</ele>
        <time>2021-05-11T14:32:42+02:00</time>
      </trkpt>
      <trkpt lat="44.44627" lon="1.8291">
        <ele>337</ele>
        <time>2021-05-11T14:33:01+02:00</time>
      </trkpt>
      <trkpt lat="44.44604" lon="1.82898">
        <ele>338</ele>
        <time>2021-05-11T14:33:21+02:00</time>
      </trkpt>
      <trkpt lat="44.44582" lon="1.82897">
        <ele>335</ele>
        <time>2021-05-11T14:33:40+02:00</time>
      </trkpt>
      <trkpt lat="44.44559" lon="1.82894">
        <ele>335</ele>
        <time>2021-05-11T14:33:58+02:00</time>
      </trkpt>
      <trkpt lat="44.44536" lon="1.8289">
        <ele>335</ele>
        <time>2021-05-11T14:34:15+02:00</time>
      </trkpt>
      <trkpt lat="44.44514" lon="1.82877">
        <ele>334</ele>
        <time>2021-05-11T14:34:55+02:00</time>
      </trkpt>
      <trkpt lat="44.44493" lon="1.82863">
        <ele>333</ele>
        <time>2021-05-11T14:35:14+02:00</time>
      </trkpt>
      <trkpt lat="44.4447" lon="1.82854">
        <ele>332</ele>
        <time>2021-05-11T14:35:33+02:00</time>
      </trkpt>
      <trkpt lat="44.44447" lon="1.82849">
        <ele>331</ele>
        <time>2021-05-11T14:35:52+02:00</time>
      </trkpt>
      <trkpt lat="44.44424" lon="1.82849">
        <ele>334</ele>
        <time>2021-05-11T14:36:09+02:00</time>
      </trkpt>
      <trkpt lat="44.44402" lon="1.82845">
        <ele>334</ele>
        <time>2021-05-11T14:36:26+02:00</time>
      </trkpt>
      <trkpt lat="44.44379" lon="1.8284">
        <ele>334</ele>
        <time>2021-05-11T14:36:44+02:00</time>
      </trkpt>
      <trkpt lat="44.44356" lon="1.82853">
        <ele>336</ele>
        <time>2021-05-11T14:37:02+02:00</time>
      </trkpt>
      <trkpt lat="44.44333" lon="1.82857">
        <ele>337</ele>
        <time>2021-05-11T14:37:20+02:00</time>
      </trkpt>
      <trkpt lat="44.44311" lon="1.82865">
        <ele>337</ele>
        <time>2021-05-11T14:37:38+02:00</time>
      </trkpt>
      <trkpt lat="44.44288" lon="1.82869">
        <ele>340</ele>
        <time>2021-05-11T14:37:56+02:00</time>
      </trkpt>
      <trkpt lat="44.44266" lon="1.82877">
        <ele>340</ele>
        <time>2021-05-11T14:38:13+02:00</time>
      </trkpt>
      <trkpt lat="44.44245" lon="1.8289">
        <ele>342</ele>
        <time>2021-05-11T14:38:31+02:00</time>
      </trkpt>
      <trkpt lat="44.44226" lon="1.82906">
        <ele>343</ele>
        <time>2021-05-11T14:38:48+02:00</time>
      </trkpt>
      <trkpt lat="44.44207" lon="1.82923">
        <ele>346</ele>
        <time>2021-05-11T14:39:06+02:00</time>
      </trkpt>
      <trkpt lat="44.44187" lon="1.82939">
        <ele>347</ele>
        <time>2021-05-11T14:39:32+02:00</time>
      </trkpt>
      <trkpt lat="44.44167" lon="1.82955">
        <ele>350</ele>
        <time>2021-05-11T14:39:53+02:00</time>
      </trkpt>
      <trkpt lat="44.44147" lon="1.8297">
        <ele>351</ele>
        <time>2021-05-11T14:40:14+02:00</time>
      </trkpt>
      <trkpt lat="44.44127" lon="1.82986">
        <ele>352</ele>
        <time>2021-05-11T14:40:34+02:00</time>
      </trkpt>
      <trkpt lat="44.44109" lon="1.83005">
        <ele>353</ele>
        <time>2021-05-11T14:40:52+02:00</time>
      </trkpt>
      <trkpt lat="44.44091" lon="1.83025">
        <ele>356</ele>
        <time>2021-05-11T14:41:12+02:00</time>
      </trkpt>
      <trkpt lat="44.44072" lon="1.83044">
        <ele>356</ele>
        <time>2021-05-11T14:41:30+02:00</time>
      </trkpt>
      <trkpt lat="44.44055" lon="1.83064">
        <ele>355</ele>
        <time>2021-05-11T14:41:47+02:00</time>
      </trkpt>
      <trkpt lat="44.44037" lon="1.83085">
        <ele>355</ele>
        <time>2021-05-11T14:42:05+02:00</time>
      </trkpt>
      <trkpt lat="44.44024" lon="1.83112">
        <ele>357</ele>
        <time>2021-05-11T14:42:21+02:00</time>
      </trkpt>
      <trkpt lat="44.44009" lon="1.83138">
        <ele>355</ele>
        <time>2021-05-11T14:42:38+02:00</time>
      </trkpt>
      <trkpt lat="44.43999" lon="1.83167">
        <ele>352</ele>
        <time>2021-05-11T14:42:57+02:00</time>
      </trkpt>
      <trkpt lat="44.43986" lon="1.83193">
        <ele>349</ele>
        <time>2021-05-11T14:43:15+02:00</time>
      </trkpt>
      <trkpt lat="44.43975" lon="1.83223">
        <ele>350</ele>
        <time>2021-05-11T14:43:32+02:00</time>
      </trkpt>
      <trkpt lat="44.43963" lon="1.8325">
        <ele>351</ele>
        <time>2021-05-11T14:43:48+02:00</time>
      </trkpt>
      <trkpt lat="44.43948" lon="1.83274">
        <ele>351</ele>
        <time>2021-05-11T14:44:05+02:00</time>
      </trkpt>
      <trkpt lat="44.43929" lon="1.83293">
        <ele>350</ele>
        <time>2021-05-11T14:44:21+02:00</time>
      </trkpt>
      <trkpt lat="44.43911" lon="1.83314">
        <ele>352</ele>
        <time>2021-05-11T14:44:39+02:00</time>
      </trkpt>
      <trkpt lat="44.4389" lon="1.83327">
        <ele>353</ele>
        <time>2021-05-11T14:44:57+02:00</time>
      </trkpt>
      <trkpt lat="44.4387" lon="1.83344">
        <ele>353</ele>
        <time>2021-05-11T14:45:14+02:00</time>
      </trkpt>
      <trkpt lat="44.43849" lon="1.83358">
        <ele>354</ele>
        <time>2021-05-11T14:45:32+02:00</time>
      </trkpt>
      <trkpt lat="44.43831" lon="1.83377">
        <ele>354</ele>
        <time>2021-05-11T14:46:18+02:00</time>
      </trkpt>
      <trkpt lat="44.4381" lon="1.8339">
        <ele>354</ele>
        <time>2021-05-11T14:46:38+02:00</time>
      </trkpt>
      <trkpt lat="44.43789" lon="1.83406">
        <ele>358</ele>
        <time>2021-05-11T14:46:55+02:00</time>
      </trkpt>
      <trkpt lat="44.43769" lon="1.8342">
        <ele>358</ele>
        <time>2021-05-11T14:47:13+02:00</time>
      </trkpt>
      <trkpt lat="44.43748" lon="1.83435">
        <ele>358</ele>
        <time>2021-05-11T14:47:33+02:00</time>
      </trkpt>
      <trkpt lat="44.43728" lon="1.8345">
        <ele>359</ele>
        <time>2021-05-11T14:47:50+02:00</time>
      </trkpt>
      <trkpt lat="44.43708" lon="1.83465">
        <ele>359</ele>
        <time>2021-05-11T14:48:08+02:00</time>
      </trkpt>
      <trkpt lat="44.43687" lon="1.83479">
        <ele>360</ele>
        <time>2021-05-11T14:48:25+02:00</time>
      </trkpt>
      <trkpt lat="44.43665" lon="1.83491">
        <ele>362</ele>
        <time>2021-05-11T14:48:42+02:00</time>
      </trkpt>
      <trkpt lat="44.43644" lon="1.83501">
        <ele>362</ele>
        <time>2021-05-11T14:48:58+02:00</time>
      </trkpt>
      <trkpt lat="44.43621" lon="1.83506">
        <ele>362</ele>
        <time>2021-05-11T14:49:15+02:00</time>
      </trkpt>
      <trkpt lat="44.43599" lon="1.83515">
        <ele>360</ele>
        <time>2021-05-11T14:50:13+02:00</time>
      </trkpt>
      <trkpt lat="44.43576" lon="1.83514">
        <ele>360</ele>
        <time>2021-05-11T14:50:31+02:00</time>
      </trkpt>
      <trkpt lat="44.43553" lon="1.83515">
        <ele>361</ele>
        <time>2021-05-11T14:50:49+02:00</time>
      </trkpt>
      <trkpt lat="44.43529" lon="1.83513">
        <ele>359</ele>
        <time>2021-05-11T14:51:04+02:00</time>
      </trkpt>
      <trkpt lat="44.43507" lon="1.83517">
        <ele>359</ele>
        <time>2021-05-11T14:51:20+02:00</time>
      </trkpt>
      <trkpt lat="44.43483" lon="1.83515">
        <ele>358</ele>
        <time>2021-05-11T14:51:38+02:00</time>
      </trkpt>
      <trkpt lat="44.4346" lon="1.83508">
        <ele>359</ele>
        <time>2021-05-11T14:51:55+02:00</time>
      </trkpt>
      <trkpt lat="44.43437" lon="1.83502">
        <ele>359</ele>
        <time>2021-05-11T14:52:11+02:00</time>
      </trkpt>
      <trkpt lat="44.43415" lon="1.83494">
        <ele>358</ele>
        <time>2021-05-11T14:52:29+02:00</time>
      </trkpt>
      <trkpt lat="44.43392" lon="1.8349">
        <ele>359</ele>
        <time>2021-05-11T14:52:46+02:00</time>
      </trkpt>
      <trkpt lat="44.43369" lon="1.83484">
        <ele>357</ele>
        <time>2021-05-11T14:53:03+02:00</time>
      </trkpt>
      <trkpt lat="44.43347" lon="1.83483">
        <ele>358</ele>
        <time>2021-05-11T14:53:21+02:00</time>
      </trkpt>
      <trkpt lat="44.43324" lon="1.83485">
        <ele>357</ele>
        <time>2021-05-11T14:53:38+02:00</time>
      </trkpt>
      <trkpt lat="44.43302" lon="1.83493">
        <ele>359</ele>
        <time>2021-05-11T14:53:55+02:00</time>
      </trkpt>
      <trkpt lat="44.43279" lon="1.83493">
        <ele>360</ele>
        <time>2021-05-11T14:54:30+02:00</time>
      </trkpt>
      <trkpt lat="44.43256" lon="1.83489">
        <ele>361</ele>
        <time>2021-05-11T14:54:50+02:00</time>
      </trkpt>
      <trkpt lat="44.43233" lon="1.8349">
        <ele>364</ele>
        <time>2021-05-11T14:55:09+02:00</time>
      </trkpt>
      <trkpt lat="44.4321" lon="1.83491">
        <ele>365</ele>
        <time>2021-05-11T14:55:29+02:00</time>
      </trkpt>
      <trkpt lat="44.43186" lon="1.83489">
        <ele>367</ele>
        <time>2021-05-11T14:55:47+02:00</time>
      </trkpt>
      <trkpt lat="44.43163" lon="1.83492">
        <ele>367</ele>
        <time>2021-05-11T14:56:06+02:00</time>
      </trkpt>
      <trkpt lat="44.4314" lon="1.83495">
        <ele>368</ele>
        <time>2021-05-11T14:56:23+02:00</time>
      </trkpt>
      <trkpt lat="44.43117" lon="1.83497">
        <ele>369</ele>
        <time>2021-05-11T14:56:41+02:00</time>
      </trkpt>
      <trkpt lat="44.43094" lon="1.83495">
        <ele>369</ele>
        <time>2021-05-11T14:56:59+02:00</time>
      </trkpt>
      <trkpt lat="44.4307" lon="1.83492">
        <ele>371</ele>
        <time>2021-05-11T14:57:15+02:00</time>
      </trkpt>
      <trkpt lat="44.43048" lon="1.83485">
        <ele>370</ele>
        <time>2021-05-11T14:57:30+02:00</time>
      </trkpt>
      <trkpt lat="44.43026" lon="1.8348">
        <ele>370</ele>
        <time>2021-05-11T14:57:46+02:00</time>
      </trkpt>
      <trkpt lat="44.43002" lon="1.83479">
        <ele>372</ele>
        <time>2021-05-11T14:58:03+02:00</time>
      </trkpt>
      <trkpt lat="44.42979" lon="1.83474">
        <ele>371</ele>
        <time>2021-05-11T14:58:20+02:00</time>
      </trkpt>
      <trkpt lat="44.42956" lon="1.83474">
        <ele>371</ele>
        <time>2021-05-11T14:58:37+02:00</time>
      </trkpt>
      <trkpt lat="44.42933" lon="1.83476">
        <ele>371</ele>
        <time>2021-05-11T14:58:56+02:00</time>
      </trkpt>
      <trkpt lat="44.42911" lon="1.8347">
        <ele>373</ele>
        <time>2021-05-11T14:59:17+02:00</time>
      </trkpt>
      <trkpt lat="44.4289" lon="1.83456">
        <ele>369</ele>
        <time>2021-05-11T14:59:41+02:00</time>
      </trkpt>
      <trkpt lat="44.42868" lon="1.83446">
        <ele>368</ele>
        <time>2021-05-11T15:00:00+02:00</time>
      </trkpt>
      <trkpt lat="44.42847" lon="1.83434">
        <ele>367</ele>
        <time>2021-05-11T15:00:17+02:00</time>
      </trkpt>
      <trkpt lat="44.42825" lon="1.83426">
        <ele>366</ele>
        <time>2021-05-11T15:00:33+02:00</time>
      </trkpt>
      <trkpt lat="44.42803" lon="1.83419">
        <ele>364</ele>
        <time>2021-05-11T15:00:51+02:00</time>
      </trkpt>
      <trkpt lat="44.42783" lon="1.83403">
        <ele>363</ele>
        <time>2021-05-11T15:01:10+02:00</time>
      </trkpt>
      <trkpt lat="44.42761" lon="1.83395">
        <ele>358</ele>
        <time>2021-05-11T15:01:32+02:00</time>
      </trkpt>
      <trkpt lat="44.42738" lon="1.83391">
        <ele>357</ele>
        <time>2021-05-11T15:01:50+02:00</time>
      </trkpt>
      <trkpt lat="44.42716" lon="1.83389">
        <ele>357</ele>
        <time>2021-05-11T15:02:07+02:00</time>
      </trkpt>
      <trkpt lat="44.42691" lon="1.8339">
        <ele>356</ele>
        <time>2021-05-11T15:02:25+02:00</time>
      </trkpt>
      <trkpt lat="44.42668" lon="1.83389">
        <ele>355</ele>
        <time>2021-05-11T15:02:44+02:00</time>
      </trkpt>
      <trkpt lat="44.42645" lon="1.83384">
        <ele>355</ele>
        <time>2021-05-11T15:03:03+02:00</time>
      </trkpt>
      <trkpt lat="44.42626" lon="1.83364">
        <ele>351</ele>
        <time>2021-05-11T15:03:22+02:00</time>
      </trkpt>
      <trkpt lat="44.42618" lon="1.83333">
        <ele>350</ele>
        <time>2021-05-11T15:03:37+02:00</time>
      </trkpt>
      <trkpt lat="44.426" lon="1.83315">
        <ele>348</ele>
        <time>2021-05-11T15:03:54+02:00</time>
      </trkpt>
      <trkpt lat="44.4258" lon="1.83299">
        <ele>347</ele>
        <time>2021-05-11T15:04:10+02:00</time>
      </trkpt>
      <trkpt lat="44.42557" lon="1.83294">
        <ele>346</ele>
        <time>2021-05-11T15:04:25+02:00</time>
      </trkpt>
      <trkpt lat="44.42535" lon="1.83288">
        <ele>344</ele>
        <time>2021-05-11T15:04:40+02:00</time>
      </trkpt>
      <trkpt lat="44.42511" lon="1.83291">
        <ele>344</ele>
        <time>2021-05-11T15:04:51+02:00</time>
      </trkpt>
      <trkpt lat="44.42488" lon="1.83295">
        <ele>343</ele>
        <time>2021-05-11T15:05:01+02:00</time>
      </trkpt>
      <trkpt lat="44.42464" lon="1.83301">
        <ele>341</ele>
        <time>2021-05-11T15:05:11+02:00</time>
      </trkpt>
      <trkpt lat="44.42441" lon="1.83314">
        <ele>340</ele>
        <time>2021-05-11T15:05:22+02:00</time>
      </trkpt>
      <trkpt lat="44.42422" lon="1.83335">
        <ele>339</ele>
        <time>2021-05-11T15:05:33+02:00</time>
      </trkpt>
      <trkpt lat="44.42408" lon="1.83361">
        <ele>339</ele>
        <time>2021-05-11T15:05:43+02:00</time>
      </trkpt>
      <trkpt lat="44.42389" lon="1.83381">
        <ele>339</ele>
        <time>2021-05-11T15:06:04+02:00</time>
      </trkpt>
      <trkpt lat="44.42367" lon="1.83393">
        <ele>340</ele>
        <time>2021-05-11T15:06:14+02:00</time>
      </trkpt>
      <trkpt lat="44.42347" lon="1.83412">
        <ele>341</ele>
        <time>2021-05-11T15:06:24+02:00</time>
      </trkpt>
      <trkpt lat="44.42329" lon="1.83432">
        <ele>343</ele>
        <time>2021-05-11T15:06:34+02:00</time>
      </trkpt>
      <trkpt lat="44.42308" lon="1.83446">
        <ele>345</ele>
        <time>2021-05-11T15:06:49+02:00</time>
      </trkpt>
      <trkpt lat="44.42291" lon="1.83465">
        <ele>348</ele>
        <time>2021-05-11T15:08:24+02:00</time>
      </trkpt>
      <trkpt lat="44.42273" lon="1.83445">
        <ele>347</ele>
        <time>2021-05-11T15:40:08+02:00</time>
      </trkpt>
      <trkpt lat="44.42251" lon="1.83436">
        <ele>348</ele>
        <time>2021-05-11T15:40:34+02:00</time>
      </trkpt>
      <trkpt lat="44.42228" lon="1.8344">
        <ele>350</ele>
        <time>2021-05-11T15:40:57+02:00</time>
      </trkpt>
      <trkpt lat="44.42205" lon="1.83445">
        <ele>353</ele>
        <time>2021-05-11T15:41:19+02:00</time>
      </trkpt>
      <trkpt lat="44.42181" lon="1.83449">
        <ele>355</ele>
        <time>2021-05-11T15:41:41+02:00</time>
      </trkpt>
      <trkpt lat="44.42158" lon="1.83454">
        <ele>358</ele>
        <time>2021-05-11T15:42:15+02:00</time>
      </trkpt>
      <trkpt lat="44.42135" lon="1.83452">
        <ele>362</ele>
        <time>2021-05-11T15:42:38+02:00</time>
      </trkpt>
      <trkpt lat="44.42112" lon="1.83454">
        <ele>367</ele>
        <time>2021-05-11T15:42:59+02:00</time>
      </trkpt>
      <trkpt lat="44.42089" lon="1.83455">
        <ele>369</ele>
        <time>2021-05-11T15:43:22+02:00</time>
      </trkpt>
      <trkpt lat="44.42066" lon="1.83449">
        <ele>371</ele>
        <time>2021-05-11T15:43:45+02:00</time>
      </trkpt>
      <trkpt lat="44.42044" lon="1.83461">
        <ele>372</ele>
        <time>2021-05-11T15:44:07+02:00</time>
      </trkpt>
      <trkpt lat="44.42023" lon="1.83471">
        <ele>374</ele>
        <time>2021-05-11T15:44:30+02:00</time>
      </trkpt>
      <trkpt lat="44.42002" lon="1.83486">
        <ele>373</ele>
        <time>2021-05-11T15:44:51+02:00</time>
      </trkpt>
      <trkpt lat="44.41982" lon="1.83501">
        <ele>373</ele>
        <time>2021-05-11T15:45:15+02:00</time>
      </trkpt>
      <trkpt lat="44.41967" lon="1.83526">
        <ele>374</ele>
        <time>2021-05-11T15:45:35+02:00</time>
      </trkpt>
      <trkpt lat="44.41955" lon="1.83555">
        <ele>377</ele>
        <time>2021-05-11T15:46:06+02:00</time>
      </trkpt>
      <trkpt lat="44.41933" lon="1.83561">
        <ele>378</ele>
        <time>2021-05-11T15:46:25+02:00</time>
      </trkpt>
      <trkpt lat="44.4191" lon="1.83562">
        <ele>378</ele>
        <time>2021-05-11T15:46:48+02:00</time>
      </trkpt>
      <trkpt lat="44.41888" lon="1.8357">
        <ele>379</ele>
        <time>2021-05-11T15:47:06+02:00</time>
      </trkpt>
      <trkpt lat="44.41865" lon="1.83569">
        <ele>380</ele>
        <time>2021-05-11T15:47:27+02:00</time>
      </trkpt>
      <trkpt lat="44.41841" lon="1.83567">
        <ele>379</ele>
        <time>2021-05-11T15:47:46+02:00</time>
      </trkpt>
      <trkpt lat="44.41818" lon="1.83567">
        <ele>379</ele>
        <time>2021-05-11T15:48:05+02:00</time>
      </trkpt>
      <trkpt lat="44.41795" lon="1.83576">
        <ele>380</ele>
        <time>2021-05-11T15:48:24+02:00</time>
      </trkpt>
      <trkpt lat="44.41782" lon="1.83603">
        <ele>381</ele>
        <time>2021-05-11T15:48:44+02:00</time>
      </trkpt>
      <trkpt lat="44.41771" lon="1.83594">
        <ele>382</ele>
        <time>2021-05-11T15:52:20+02:00</time>
      </trkpt>
      <trkpt lat="44.41765" lon="1.83583">
        <ele>382</ele>
        <time>2021-05-11T15:53:00+02:00</time>
      </trkpt>
    </trkseg>
  </trk>
</gpx>